<?xml version="1.0" encoding="UTF-8" standalone="no" ?>
<gpx xmlns="http://www.topografix.com/GPX/1/1" xmlns:xsi="http://www.w3.org/2001/XMLSchema-instance" xsi:schemaLocation="http://www.topografix.com/GPX/1/1 http://www.topografix.com/GPX/1/1/gpx.xsd" version="1.1" creator="VisuGPX - https://www.visugpx.com">
  <metadata>
    <name>combe benite </name>
  </metadata>
  <trk>
    <name><![CDATA[combe benite ]]></name>
    <trkseg>
      <trkpt lat="45.57124" lon="6.64455">
        <ele>1364</ele>
        <time>2023-01-29T08:31:01.047Z</time>
      </trkpt>
      <trkpt lat="45.57124" lon="6.64455">
        <ele>1364</ele>
        <time>2023-01-29T08:31:01.756Z</time>
      </trkpt>
      <trkpt lat="45.57123" lon="6.64451">
        <ele>1363</ele>
        <time>2023-01-29T08:31:22.849Z</time>
      </trkpt>
      <trkpt lat="45.57123" lon="6.64451">
        <ele>1363</ele>
        <time>2023-01-29T08:33:13.820Z</time>
      </trkpt>
      <trkpt lat="45.57114" lon="6.6442">
        <ele>1364</ele>
        <time>2023-01-29T08:33:14.838Z</time>
      </trkpt>
      <trkpt lat="45.57112" lon="6.64407">
        <ele>1363</ele>
        <time>2023-01-29T08:33:23.841Z</time>
      </trkpt>
      <trkpt lat="45.57109" lon="6.64394">
        <ele>1363</ele>
        <time>2023-01-29T08:33:31.840Z</time>
      </trkpt>
      <trkpt lat="45.57106" lon="6.64381">
        <ele>1363</ele>
        <time>2023-01-29T08:33:40.828Z</time>
      </trkpt>
      <trkpt lat="45.57103" lon="6.64368">
        <ele>1362</ele>
        <time>2023-01-29T08:33:50.852Z</time>
      </trkpt>
      <trkpt lat="45.57099" lon="6.64356">
        <ele>1362</ele>
        <time>2023-01-29T08:33:59.839Z</time>
      </trkpt>
      <trkpt lat="45.57095" lon="6.64344">
        <ele>1362</ele>
        <time>2023-01-29T08:34:07.825Z</time>
      </trkpt>
      <trkpt lat="45.57093" lon="6.64331">
        <ele>1362</ele>
        <time>2023-01-29T08:34:15.812Z</time>
      </trkpt>
      <trkpt lat="45.57089" lon="6.64319">
        <ele>1362</ele>
        <time>2023-01-29T08:34:24.822Z</time>
      </trkpt>
      <trkpt lat="45.57088" lon="6.64306">
        <ele>1363</ele>
        <time>2023-01-29T08:34:46.814Z</time>
      </trkpt>
      <trkpt lat="45.57088" lon="6.64306">
        <ele>1363</ele>
        <time>2023-01-29T08:35:06.863Z</time>
      </trkpt>
      <trkpt lat="45.57083" lon="6.64274">
        <ele>1364</ele>
        <time>2023-01-29T08:35:07.833Z</time>
      </trkpt>
      <trkpt lat="45.57082" lon="6.64261">
        <ele>1364</ele>
        <time>2023-01-29T08:35:16.827Z</time>
      </trkpt>
      <trkpt lat="45.57082" lon="6.64259">
        <ele>1366</ele>
        <time>2023-01-29T08:35:29.796Z</time>
      </trkpt>
      <trkpt lat="45.57082" lon="6.64259">
        <ele>1366</ele>
        <time>2023-01-29T08:35:48.819Z</time>
      </trkpt>
      <trkpt lat="45.57079" lon="6.64226">
        <ele>1368</ele>
        <time>2023-01-29T08:35:49.801Z</time>
      </trkpt>
      <trkpt lat="45.57079" lon="6.64211">
        <ele>1368</ele>
        <time>2023-01-29T08:35:57.829Z</time>
      </trkpt>
      <trkpt lat="45.57079" lon="6.64199">
        <ele>1368</ele>
        <time>2023-01-29T08:36:04.782Z</time>
      </trkpt>
      <trkpt lat="45.57077" lon="6.64185">
        <ele>1369</ele>
        <time>2023-01-29T08:36:12.874Z</time>
      </trkpt>
      <trkpt lat="45.57075" lon="6.64171">
        <ele>1370</ele>
        <time>2023-01-29T08:36:20.755Z</time>
      </trkpt>
      <trkpt lat="45.57072" lon="6.64159">
        <ele>1370</ele>
        <time>2023-01-29T08:36:30.814Z</time>
      </trkpt>
      <trkpt lat="45.57067" lon="6.64146">
        <ele>1370</ele>
        <time>2023-01-29T08:36:39.842Z</time>
      </trkpt>
      <trkpt lat="45.57062" lon="6.64135">
        <ele>1371</ele>
        <time>2023-01-29T08:36:47.817Z</time>
      </trkpt>
      <trkpt lat="45.57056" lon="6.64125">
        <ele>1371</ele>
        <time>2023-01-29T08:36:57.835Z</time>
      </trkpt>
      <trkpt lat="45.57052" lon="6.64117">
        <ele>1371</ele>
        <time>2023-01-29T08:37:15.864Z</time>
      </trkpt>
      <trkpt lat="45.57052" lon="6.64117">
        <ele>1371</ele>
        <time>2023-01-29T08:39:28.838Z</time>
      </trkpt>
      <trkpt lat="45.57045" lon="6.64087">
        <ele>1369</ele>
        <time>2023-01-29T08:39:29.809Z</time>
      </trkpt>
      <trkpt lat="45.57043" lon="6.64074">
        <ele>1369</ele>
        <time>2023-01-29T08:39:37.824Z</time>
      </trkpt>
      <trkpt lat="45.57041" lon="6.64061">
        <ele>1369</ele>
        <time>2023-01-29T08:39:46.834Z</time>
      </trkpt>
      <trkpt lat="45.57037" lon="6.64048">
        <ele>1370</ele>
        <time>2023-01-29T08:39:53.816Z</time>
      </trkpt>
      <trkpt lat="45.57031" lon="6.64036">
        <ele>1371</ele>
        <time>2023-01-29T08:40:02.831Z</time>
      </trkpt>
      <trkpt lat="45.57024" lon="6.64028">
        <ele>1371</ele>
        <time>2023-01-29T08:40:12.829Z</time>
      </trkpt>
      <trkpt lat="45.57015" lon="6.6402">
        <ele>1371</ele>
        <time>2023-01-29T08:40:21.776Z</time>
      </trkpt>
      <trkpt lat="45.57007" lon="6.64015">
        <ele>1370</ele>
        <time>2023-01-29T08:40:30.843Z</time>
      </trkpt>
      <trkpt lat="45.56998" lon="6.6401">
        <ele>1370</ele>
        <time>2023-01-29T08:40:38.803Z</time>
      </trkpt>
      <trkpt lat="45.5699" lon="6.64004">
        <ele>1369</ele>
        <time>2023-01-29T08:40:46.856Z</time>
      </trkpt>
      <trkpt lat="45.56982" lon="6.63995">
        <ele>1368</ele>
        <time>2023-01-29T08:40:55.775Z</time>
      </trkpt>
      <trkpt lat="45.56975" lon="6.63986">
        <ele>1368</ele>
        <time>2023-01-29T08:41:03.826Z</time>
      </trkpt>
      <trkpt lat="45.56968" lon="6.63976">
        <ele>1368</ele>
        <time>2023-01-29T08:41:11.823Z</time>
      </trkpt>
      <trkpt lat="45.5696" lon="6.63966">
        <ele>1368</ele>
        <time>2023-01-29T08:41:19.839Z</time>
      </trkpt>
      <trkpt lat="45.56954" lon="6.63957">
        <ele>1368</ele>
        <time>2023-01-29T08:41:28.819Z</time>
      </trkpt>
      <trkpt lat="45.56947" lon="6.63948">
        <ele>1368</ele>
        <time>2023-01-29T08:41:35.835Z</time>
      </trkpt>
      <trkpt lat="45.5694" lon="6.63939">
        <ele>1368</ele>
        <time>2023-01-29T08:41:43.846Z</time>
      </trkpt>
      <trkpt lat="45.56934" lon="6.63929">
        <ele>1369</ele>
        <time>2023-01-29T08:41:51.833Z</time>
      </trkpt>
      <trkpt lat="45.56927" lon="6.63919">
        <ele>1369</ele>
        <time>2023-01-29T08:42:00.837Z</time>
      </trkpt>
      <trkpt lat="45.56923" lon="6.63906">
        <ele>1369</ele>
        <time>2023-01-29T08:42:10.835Z</time>
      </trkpt>
      <trkpt lat="45.56918" lon="6.63895">
        <ele>1370</ele>
        <time>2023-01-29T08:42:19.830Z</time>
      </trkpt>
      <trkpt lat="45.5691" lon="6.63885">
        <ele>1371</ele>
        <time>2023-01-29T08:42:27.834Z</time>
      </trkpt>
      <trkpt lat="45.56905" lon="6.63874">
        <ele>1372</ele>
        <time>2023-01-29T08:42:39.830Z</time>
      </trkpt>
      <trkpt lat="45.56899" lon="6.63865">
        <ele>1373</ele>
        <time>2023-01-29T08:42:48.849Z</time>
      </trkpt>
      <trkpt lat="45.56893" lon="6.63855">
        <ele>1374</ele>
        <time>2023-01-29T08:42:56.834Z</time>
      </trkpt>
      <trkpt lat="45.56886" lon="6.63844">
        <ele>1376</ele>
        <time>2023-01-29T08:43:07.804Z</time>
      </trkpt>
      <trkpt lat="45.56881" lon="6.63832">
        <ele>1377</ele>
        <time>2023-01-29T08:43:15.823Z</time>
      </trkpt>
      <trkpt lat="45.56875" lon="6.63821">
        <ele>1378</ele>
        <time>2023-01-29T08:43:25.869Z</time>
      </trkpt>
      <trkpt lat="45.56872" lon="6.63808">
        <ele>1379</ele>
        <time>2023-01-29T08:43:33.806Z</time>
      </trkpt>
      <trkpt lat="45.56874" lon="6.63795">
        <ele>1380</ele>
        <time>2023-01-29T08:43:41.800Z</time>
      </trkpt>
      <trkpt lat="45.56879" lon="6.63783">
        <ele>1381</ele>
        <time>2023-01-29T08:43:50.861Z</time>
      </trkpt>
      <trkpt lat="45.56882" lon="6.63771">
        <ele>1381</ele>
        <time>2023-01-29T08:43:58.850Z</time>
      </trkpt>
      <trkpt lat="45.56883" lon="6.63757">
        <ele>1382</ele>
        <time>2023-01-29T08:44:06.847Z</time>
      </trkpt>
      <trkpt lat="45.56881" lon="6.63744">
        <ele>1383</ele>
        <time>2023-01-29T08:44:13.826Z</time>
      </trkpt>
      <trkpt lat="45.56876" lon="6.63732">
        <ele>1384</ele>
        <time>2023-01-29T08:44:21.801Z</time>
      </trkpt>
      <trkpt lat="45.56871" lon="6.63722">
        <ele>1385</ele>
        <time>2023-01-29T08:44:29.839Z</time>
      </trkpt>
      <trkpt lat="45.56866" lon="6.6371">
        <ele>1385</ele>
        <time>2023-01-29T08:44:36.850Z</time>
      </trkpt>
      <trkpt lat="45.56864" lon="6.63698">
        <ele>1385</ele>
        <time>2023-01-29T08:44:46.825Z</time>
      </trkpt>
      <trkpt lat="45.5686" lon="6.63684">
        <ele>1385</ele>
        <time>2023-01-29T08:44:56.815Z</time>
      </trkpt>
      <trkpt lat="45.56855" lon="6.63671">
        <ele>1385</ele>
        <time>2023-01-29T08:45:04.837Z</time>
      </trkpt>
      <trkpt lat="45.56851" lon="6.63659">
        <ele>1386</ele>
        <time>2023-01-29T08:45:12.841Z</time>
      </trkpt>
      <trkpt lat="45.56845" lon="6.63647">
        <ele>1386</ele>
        <time>2023-01-29T08:45:20.842Z</time>
      </trkpt>
      <trkpt lat="45.56839" lon="6.63637">
        <ele>1387</ele>
        <time>2023-01-29T08:45:28.842Z</time>
      </trkpt>
      <trkpt lat="45.56833" lon="6.63627">
        <ele>1389</ele>
        <time>2023-01-29T08:45:36.837Z</time>
      </trkpt>
      <trkpt lat="45.56829" lon="6.63613">
        <ele>1390</ele>
        <time>2023-01-29T08:45:44.841Z</time>
      </trkpt>
      <trkpt lat="45.56826" lon="6.63601">
        <ele>1392</ele>
        <time>2023-01-29T08:45:53.836Z</time>
      </trkpt>
      <trkpt lat="45.56824" lon="6.63588">
        <ele>1393</ele>
        <time>2023-01-29T08:46:01.834Z</time>
      </trkpt>
      <trkpt lat="45.56821" lon="6.63574">
        <ele>1395</ele>
        <time>2023-01-29T08:46:10.853Z</time>
      </trkpt>
      <trkpt lat="45.5682" lon="6.63561">
        <ele>1396</ele>
        <time>2023-01-29T08:46:19.762Z</time>
      </trkpt>
      <trkpt lat="45.56819" lon="6.63546">
        <ele>1396</ele>
        <time>2023-01-29T08:46:28.831Z</time>
      </trkpt>
      <trkpt lat="45.56819" lon="6.63532">
        <ele>1396</ele>
        <time>2023-01-29T08:46:36.801Z</time>
      </trkpt>
      <trkpt lat="45.56819" lon="6.63518">
        <ele>1397</ele>
        <time>2023-01-29T08:46:44.857Z</time>
      </trkpt>
      <trkpt lat="45.56821" lon="6.63505">
        <ele>1397</ele>
        <time>2023-01-29T08:46:53.834Z</time>
      </trkpt>
      <trkpt lat="45.56822" lon="6.6349">
        <ele>1398</ele>
        <time>2023-01-29T08:47:01.831Z</time>
      </trkpt>
      <trkpt lat="45.56825" lon="6.63476">
        <ele>1400</ele>
        <time>2023-01-29T08:47:09.779Z</time>
      </trkpt>
      <trkpt lat="45.56828" lon="6.63464">
        <ele>1401</ele>
        <time>2023-01-29T08:47:18.808Z</time>
      </trkpt>
      <trkpt lat="45.5683" lon="6.6345">
        <ele>1403</ele>
        <time>2023-01-29T08:47:26.839Z</time>
      </trkpt>
      <trkpt lat="45.56829" lon="6.63436">
        <ele>1405</ele>
        <time>2023-01-29T08:47:34.838Z</time>
      </trkpt>
      <trkpt lat="45.56827" lon="6.63423">
        <ele>1406</ele>
        <time>2023-01-29T08:47:43.797Z</time>
      </trkpt>
      <trkpt lat="45.56823" lon="6.63411">
        <ele>1407</ele>
        <time>2023-01-29T08:47:53.793Z</time>
      </trkpt>
      <trkpt lat="45.56819" lon="6.63398">
        <ele>1408</ele>
        <time>2023-01-29T08:48:03.836Z</time>
      </trkpt>
      <trkpt lat="45.56819" lon="6.63385">
        <ele>1408</ele>
        <time>2023-01-29T08:48:12.835Z</time>
      </trkpt>
      <trkpt lat="45.56824" lon="6.63373">
        <ele>1407</ele>
        <time>2023-01-29T08:48:23.822Z</time>
      </trkpt>
      <trkpt lat="45.56827" lon="6.63361">
        <ele>1408</ele>
        <time>2023-01-29T08:48:33.826Z</time>
      </trkpt>
      <trkpt lat="45.56827" lon="6.63348">
        <ele>1409</ele>
        <time>2023-01-29T08:48:42.797Z</time>
      </trkpt>
      <trkpt lat="45.56824" lon="6.63335">
        <ele>1410</ele>
        <time>2023-01-29T08:48:50.816Z</time>
      </trkpt>
      <trkpt lat="45.56819" lon="6.63322">
        <ele>1412</ele>
        <time>2023-01-29T08:48:58.806Z</time>
      </trkpt>
      <trkpt lat="45.56817" lon="6.6331">
        <ele>1413</ele>
        <time>2023-01-29T08:49:06.786Z</time>
      </trkpt>
      <trkpt lat="45.56819" lon="6.63297">
        <ele>1414</ele>
        <time>2023-01-29T08:49:15.802Z</time>
      </trkpt>
      <trkpt lat="45.56822" lon="6.63285">
        <ele>1415</ele>
        <time>2023-01-29T08:49:23.790Z</time>
      </trkpt>
      <trkpt lat="45.56825" lon="6.63272">
        <ele>1416</ele>
        <time>2023-01-29T08:49:32.792Z</time>
      </trkpt>
      <trkpt lat="45.56826" lon="6.63259">
        <ele>1417</ele>
        <time>2023-01-29T08:49:41.821Z</time>
      </trkpt>
      <trkpt lat="45.56828" lon="6.63245">
        <ele>1418</ele>
        <time>2023-01-29T08:49:51.767Z</time>
      </trkpt>
      <trkpt lat="45.56829" lon="6.63232">
        <ele>1419</ele>
        <time>2023-01-29T08:50:00.795Z</time>
      </trkpt>
      <trkpt lat="45.56831" lon="6.63218">
        <ele>1421</ele>
        <time>2023-01-29T08:50:10.805Z</time>
      </trkpt>
      <trkpt lat="45.56832" lon="6.63204">
        <ele>1422</ele>
        <time>2023-01-29T08:50:18.810Z</time>
      </trkpt>
      <trkpt lat="45.56833" lon="6.63191">
        <ele>1423</ele>
        <time>2023-01-29T08:50:25.794Z</time>
      </trkpt>
      <trkpt lat="45.56832" lon="6.63176">
        <ele>1423</ele>
        <time>2023-01-29T08:50:32.791Z</time>
      </trkpt>
      <trkpt lat="45.5683" lon="6.63162">
        <ele>1423</ele>
        <time>2023-01-29T08:50:40.804Z</time>
      </trkpt>
      <trkpt lat="45.56828" lon="6.63148">
        <ele>1424</ele>
        <time>2023-01-29T08:50:49.795Z</time>
      </trkpt>
      <trkpt lat="45.56828" lon="6.63135">
        <ele>1425</ele>
        <time>2023-01-29T08:50:57.802Z</time>
      </trkpt>
      <trkpt lat="45.56828" lon="6.63121">
        <ele>1425</ele>
        <time>2023-01-29T08:51:07.815Z</time>
      </trkpt>
      <trkpt lat="45.56832" lon="6.63108">
        <ele>1426</ele>
        <time>2023-01-29T08:51:16.798Z</time>
      </trkpt>
      <trkpt lat="45.56835" lon="6.63096">
        <ele>1427</ele>
        <time>2023-01-29T08:51:26.771Z</time>
      </trkpt>
      <trkpt lat="45.56836" lon="6.63082">
        <ele>1428</ele>
        <time>2023-01-29T08:51:34.789Z</time>
      </trkpt>
      <trkpt lat="45.56836" lon="6.63068">
        <ele>1428</ele>
        <time>2023-01-29T08:51:42.794Z</time>
      </trkpt>
      <trkpt lat="45.56837" lon="6.63054">
        <ele>1428</ele>
        <time>2023-01-29T08:51:53.802Z</time>
      </trkpt>
      <trkpt lat="45.56838" lon="6.6304">
        <ele>1429</ele>
        <time>2023-01-29T08:52:04.795Z</time>
      </trkpt>
      <trkpt lat="45.56838" lon="6.63027">
        <ele>1430</ele>
        <time>2023-01-29T08:52:12.793Z</time>
      </trkpt>
      <trkpt lat="45.56838" lon="6.63012">
        <ele>1430</ele>
        <time>2023-01-29T08:52:20.762Z</time>
      </trkpt>
      <trkpt lat="45.56837" lon="6.62998">
        <ele>1431</ele>
        <time>2023-01-29T08:52:28.796Z</time>
      </trkpt>
      <trkpt lat="45.56834" lon="6.62985">
        <ele>1431</ele>
        <time>2023-01-29T08:52:37.810Z</time>
      </trkpt>
      <trkpt lat="45.56832" lon="6.62971">
        <ele>1432</ele>
        <time>2023-01-29T08:52:45.819Z</time>
      </trkpt>
      <trkpt lat="45.56828" lon="6.62959">
        <ele>1432</ele>
        <time>2023-01-29T08:52:51.797Z</time>
      </trkpt>
      <trkpt lat="45.56827" lon="6.62945">
        <ele>1433</ele>
        <time>2023-01-29T08:53:00.804Z</time>
      </trkpt>
      <trkpt lat="45.56826" lon="6.62932">
        <ele>1434</ele>
        <time>2023-01-29T08:53:09.817Z</time>
      </trkpt>
      <trkpt lat="45.56825" lon="6.62919">
        <ele>1435</ele>
        <time>2023-01-29T08:53:19.834Z</time>
      </trkpt>
      <trkpt lat="45.56826" lon="6.62906">
        <ele>1436</ele>
        <time>2023-01-29T08:53:29.825Z</time>
      </trkpt>
      <trkpt lat="45.56825" lon="6.62892">
        <ele>1436</ele>
        <time>2023-01-29T08:53:38.777Z</time>
      </trkpt>
      <trkpt lat="45.56823" lon="6.62878">
        <ele>1437</ele>
        <time>2023-01-29T08:53:47.811Z</time>
      </trkpt>
      <trkpt lat="45.56825" lon="6.62864">
        <ele>1438</ele>
        <time>2023-01-29T08:54:00.821Z</time>
      </trkpt>
      <trkpt lat="45.56826" lon="6.62851">
        <ele>1439</ele>
        <time>2023-01-29T08:54:08.817Z</time>
      </trkpt>
      <trkpt lat="45.56828" lon="6.62838">
        <ele>1440</ele>
        <time>2023-01-29T08:54:19.823Z</time>
      </trkpt>
      <trkpt lat="45.56831" lon="6.62825">
        <ele>1441</ele>
        <time>2023-01-29T08:54:28.772Z</time>
      </trkpt>
      <trkpt lat="45.56835" lon="6.62812">
        <ele>1442</ele>
        <time>2023-01-29T08:54:39.811Z</time>
      </trkpt>
      <trkpt lat="45.56837" lon="6.62799">
        <ele>1443</ele>
        <time>2023-01-29T08:54:49.824Z</time>
      </trkpt>
      <trkpt lat="45.56835" lon="6.62786">
        <ele>1444</ele>
        <time>2023-01-29T08:54:59.810Z</time>
      </trkpt>
      <trkpt lat="45.56834" lon="6.62773">
        <ele>1444</ele>
        <time>2023-01-29T08:55:07.869Z</time>
      </trkpt>
      <trkpt lat="45.56828" lon="6.62761">
        <ele>1445</ele>
        <time>2023-01-29T08:55:16.764Z</time>
      </trkpt>
      <trkpt lat="45.56825" lon="6.62749">
        <ele>1446</ele>
        <time>2023-01-29T08:55:22.822Z</time>
      </trkpt>
      <trkpt lat="45.56821" lon="6.62737">
        <ele>1446</ele>
        <time>2023-01-29T08:55:30.871Z</time>
      </trkpt>
      <trkpt lat="45.56817" lon="6.62724">
        <ele>1447</ele>
        <time>2023-01-29T08:55:40.809Z</time>
      </trkpt>
      <trkpt lat="45.56813" lon="6.6271">
        <ele>1448</ele>
        <time>2023-01-29T08:55:48.848Z</time>
      </trkpt>
      <trkpt lat="45.56809" lon="6.62697">
        <ele>1448</ele>
        <time>2023-01-29T08:55:56.812Z</time>
      </trkpt>
      <trkpt lat="45.56802" lon="6.62688">
        <ele>1450</ele>
        <time>2023-01-29T08:56:05.832Z</time>
      </trkpt>
      <trkpt lat="45.56796" lon="6.62678">
        <ele>1453</ele>
        <time>2023-01-29T08:56:19.845Z</time>
      </trkpt>
      <trkpt lat="45.56796" lon="6.62677">
        <ele>1454</ele>
        <time>2023-01-29T08:56:26.787Z</time>
      </trkpt>
      <trkpt lat="45.56796" lon="6.62677">
        <ele>1454</ele>
        <time>2023-01-29T08:57:50.829Z</time>
      </trkpt>
      <trkpt lat="45.56789" lon="6.62646">
        <ele>1459</ele>
        <time>2023-01-29T08:57:51.832Z</time>
      </trkpt>
      <trkpt lat="45.56789" lon="6.62633">
        <ele>1461</ele>
        <time>2023-01-29T08:58:05.825Z</time>
      </trkpt>
      <trkpt lat="45.56792" lon="6.6262">
        <ele>1463</ele>
        <time>2023-01-29T08:58:16.874Z</time>
      </trkpt>
      <trkpt lat="45.56794" lon="6.62607">
        <ele>1466</ele>
        <time>2023-01-29T08:58:27.846Z</time>
      </trkpt>
      <trkpt lat="45.56792" lon="6.62594">
        <ele>1471</ele>
        <time>2023-01-29T08:58:42.866Z</time>
      </trkpt>
      <trkpt lat="45.56793" lon="6.62585">
        <ele>1476</ele>
        <time>2023-01-29T08:59:03.830Z</time>
      </trkpt>
      <trkpt lat="45.56793" lon="6.62585">
        <ele>1476</ele>
        <time>2023-01-29T08:59:45.790Z</time>
      </trkpt>
      <trkpt lat="45.56803" lon="6.62557">
        <ele>1483</ele>
        <time>2023-01-29T08:59:46.843Z</time>
      </trkpt>
      <trkpt lat="45.56804" lon="6.62553">
        <ele>1484</ele>
        <time>2023-01-29T08:59:52.787Z</time>
      </trkpt>
      <trkpt lat="45.56804" lon="6.62553">
        <ele>1484</ele>
        <time>2023-01-29T09:01:11.833Z</time>
      </trkpt>
      <trkpt lat="45.5682" lon="6.62529">
        <ele>1500</ele>
        <time>2023-01-29T09:01:12.843Z</time>
      </trkpt>
      <trkpt lat="45.56823" lon="6.62517">
        <ele>1501</ele>
        <time>2023-01-29T09:01:23.834Z</time>
      </trkpt>
      <trkpt lat="45.56826" lon="6.62504">
        <ele>1499</ele>
        <time>2023-01-29T09:01:43.879Z</time>
      </trkpt>
      <trkpt lat="45.5683" lon="6.62492">
        <ele>1497</ele>
        <time>2023-01-29T09:01:54.841Z</time>
      </trkpt>
      <trkpt lat="45.56833" lon="6.62479">
        <ele>1496</ele>
        <time>2023-01-29T09:02:04.838Z</time>
      </trkpt>
      <trkpt lat="45.56836" lon="6.62466">
        <ele>1495</ele>
        <time>2023-01-29T09:02:13.842Z</time>
      </trkpt>
      <trkpt lat="45.56837" lon="6.62452">
        <ele>1494</ele>
        <time>2023-01-29T09:02:23.834Z</time>
      </trkpt>
      <trkpt lat="45.56838" lon="6.62439">
        <ele>1493</ele>
        <time>2023-01-29T09:02:31.807Z</time>
      </trkpt>
      <trkpt lat="45.56839" lon="6.62425">
        <ele>1492</ele>
        <time>2023-01-29T09:02:40.834Z</time>
      </trkpt>
      <trkpt lat="45.56838" lon="6.62411">
        <ele>1492</ele>
        <time>2023-01-29T09:02:49.838Z</time>
      </trkpt>
      <trkpt lat="45.56838" lon="6.62398">
        <ele>1493</ele>
        <time>2023-01-29T09:02:58.826Z</time>
      </trkpt>
      <trkpt lat="45.56838" lon="6.62385">
        <ele>1494</ele>
        <time>2023-01-29T09:03:06.847Z</time>
      </trkpt>
      <trkpt lat="45.56839" lon="6.62372">
        <ele>1495</ele>
        <time>2023-01-29T09:03:16.853Z</time>
      </trkpt>
      <trkpt lat="45.56837" lon="6.62358">
        <ele>1498</ele>
        <time>2023-01-29T09:03:25.821Z</time>
      </trkpt>
      <trkpt lat="45.56836" lon="6.62344">
        <ele>1501</ele>
        <time>2023-01-29T09:03:38.838Z</time>
      </trkpt>
      <trkpt lat="45.56834" lon="6.62331">
        <ele>1503</ele>
        <time>2023-01-29T09:03:46.770Z</time>
      </trkpt>
      <trkpt lat="45.5683" lon="6.62318">
        <ele>1505</ele>
        <time>2023-01-29T09:03:55.830Z</time>
      </trkpt>
      <trkpt lat="45.56827" lon="6.62304">
        <ele>1506</ele>
        <time>2023-01-29T09:04:03.796Z</time>
      </trkpt>
      <trkpt lat="45.56824" lon="6.62291">
        <ele>1508</ele>
        <time>2023-01-29T09:04:12.849Z</time>
      </trkpt>
      <trkpt lat="45.56822" lon="6.62279">
        <ele>1509</ele>
        <time>2023-01-29T09:04:23.788Z</time>
      </trkpt>
      <trkpt lat="45.56827" lon="6.62267">
        <ele>1511</ele>
        <time>2023-01-29T09:04:38.860Z</time>
      </trkpt>
      <trkpt lat="45.56831" lon="6.62256">
        <ele>1513</ele>
        <time>2023-01-29T09:04:49.826Z</time>
      </trkpt>
      <trkpt lat="45.56835" lon="6.62243">
        <ele>1515</ele>
        <time>2023-01-29T09:04:59.837Z</time>
      </trkpt>
      <trkpt lat="45.56837" lon="6.62229">
        <ele>1516</ele>
        <time>2023-01-29T09:05:07.850Z</time>
      </trkpt>
      <trkpt lat="45.5684" lon="6.62215">
        <ele>1517</ele>
        <time>2023-01-29T09:05:16.806Z</time>
      </trkpt>
      <trkpt lat="45.56842" lon="6.62201">
        <ele>1518</ele>
        <time>2023-01-29T09:05:25.812Z</time>
      </trkpt>
      <trkpt lat="45.56842" lon="6.62188">
        <ele>1518</ele>
        <time>2023-01-29T09:05:35.826Z</time>
      </trkpt>
      <trkpt lat="45.56844" lon="6.62174">
        <ele>1518</ele>
        <time>2023-01-29T09:05:47.780Z</time>
      </trkpt>
      <trkpt lat="45.56844" lon="6.6216">
        <ele>1518</ele>
        <time>2023-01-29T09:05:55.843Z</time>
      </trkpt>
      <trkpt lat="45.56844" lon="6.62146">
        <ele>1518</ele>
        <time>2023-01-29T09:06:04.772Z</time>
      </trkpt>
      <trkpt lat="45.56842" lon="6.62133">
        <ele>1519</ele>
        <time>2023-01-29T09:06:15.840Z</time>
      </trkpt>
      <trkpt lat="45.56837" lon="6.62121">
        <ele>1521</ele>
        <time>2023-01-29T09:06:25.836Z</time>
      </trkpt>
      <trkpt lat="45.56835" lon="6.62108">
        <ele>1523</ele>
        <time>2023-01-29T09:06:33.794Z</time>
      </trkpt>
      <trkpt lat="45.56832" lon="6.62096">
        <ele>1524</ele>
        <time>2023-01-29T09:06:41.831Z</time>
      </trkpt>
      <trkpt lat="45.56828" lon="6.62082">
        <ele>1526</ele>
        <time>2023-01-29T09:06:50.834Z</time>
      </trkpt>
      <trkpt lat="45.56825" lon="6.62069">
        <ele>1528</ele>
        <time>2023-01-29T09:06:58.834Z</time>
      </trkpt>
      <trkpt lat="45.56825" lon="6.62056">
        <ele>1531</ele>
        <time>2023-01-29T09:07:10.857Z</time>
      </trkpt>
      <trkpt lat="45.56824" lon="6.62043">
        <ele>1532</ele>
        <time>2023-01-29T09:07:22.814Z</time>
      </trkpt>
      <trkpt lat="45.56826" lon="6.62029">
        <ele>1534</ele>
        <time>2023-01-29T09:07:33.832Z</time>
      </trkpt>
      <trkpt lat="45.56823" lon="6.62017">
        <ele>1534</ele>
        <time>2023-01-29T09:07:42.825Z</time>
      </trkpt>
      <trkpt lat="45.56821" lon="6.62003">
        <ele>1535</ele>
        <time>2023-01-29T09:07:52.778Z</time>
      </trkpt>
      <trkpt lat="45.5682" lon="6.6199">
        <ele>1535</ele>
        <time>2023-01-29T09:08:02.831Z</time>
      </trkpt>
      <trkpt lat="45.56818" lon="6.61977">
        <ele>1536</ele>
        <time>2023-01-29T09:08:10.838Z</time>
      </trkpt>
      <trkpt lat="45.56817" lon="6.61964">
        <ele>1537</ele>
        <time>2023-01-29T09:08:19.830Z</time>
      </trkpt>
      <trkpt lat="45.56816" lon="6.61951">
        <ele>1538</ele>
        <time>2023-01-29T09:08:28.725Z</time>
      </trkpt>
      <trkpt lat="45.56812" lon="6.61939">
        <ele>1540</ele>
        <time>2023-01-29T09:08:38.824Z</time>
      </trkpt>
      <trkpt lat="45.56808" lon="6.61926">
        <ele>1541</ele>
        <time>2023-01-29T09:08:48.842Z</time>
      </trkpt>
      <trkpt lat="45.56804" lon="6.61913">
        <ele>1544</ele>
        <time>2023-01-29T09:09:00.837Z</time>
      </trkpt>
      <trkpt lat="45.56799" lon="6.61903">
        <ele>1545</ele>
        <time>2023-01-29T09:09:10.831Z</time>
      </trkpt>
      <trkpt lat="45.56797" lon="6.61889">
        <ele>1547</ele>
        <time>2023-01-29T09:09:19.842Z</time>
      </trkpt>
      <trkpt lat="45.56792" lon="6.61876">
        <ele>1548</ele>
        <time>2023-01-29T09:09:28.807Z</time>
      </trkpt>
      <trkpt lat="45.56787" lon="6.61865">
        <ele>1549</ele>
        <time>2023-01-29T09:09:36.798Z</time>
      </trkpt>
      <trkpt lat="45.56781" lon="6.61855">
        <ele>1550</ele>
        <time>2023-01-29T09:09:44.829Z</time>
      </trkpt>
      <trkpt lat="45.56774" lon="6.61847">
        <ele>1551</ele>
        <time>2023-01-29T09:09:53.853Z</time>
      </trkpt>
      <trkpt lat="45.56767" lon="6.61837">
        <ele>1552</ele>
        <time>2023-01-29T09:10:02.842Z</time>
      </trkpt>
      <trkpt lat="45.56763" lon="6.61824">
        <ele>1553</ele>
        <time>2023-01-29T09:10:13.842Z</time>
      </trkpt>
      <trkpt lat="45.56757" lon="6.61814">
        <ele>1554</ele>
        <time>2023-01-29T09:10:23.776Z</time>
      </trkpt>
      <trkpt lat="45.56751" lon="6.61804">
        <ele>1555</ele>
        <time>2023-01-29T09:10:31.836Z</time>
      </trkpt>
      <trkpt lat="45.56745" lon="6.61793">
        <ele>1555</ele>
        <time>2023-01-29T09:10:41.834Z</time>
      </trkpt>
      <trkpt lat="45.56743" lon="6.61779">
        <ele>1557</ele>
        <time>2023-01-29T09:10:57.838Z</time>
      </trkpt>
      <trkpt lat="45.56743" lon="6.61766">
        <ele>1558</ele>
        <time>2023-01-29T09:11:08.841Z</time>
      </trkpt>
      <trkpt lat="45.5674" lon="6.61753">
        <ele>1559</ele>
        <time>2023-01-29T09:11:17.834Z</time>
      </trkpt>
      <trkpt lat="45.56736" lon="6.61742">
        <ele>1560</ele>
        <time>2023-01-29T09:11:25.823Z</time>
      </trkpt>
      <trkpt lat="45.56734" lon="6.61728">
        <ele>1561</ele>
        <time>2023-01-29T09:11:36.834Z</time>
      </trkpt>
      <trkpt lat="45.56735" lon="6.61714">
        <ele>1562</ele>
        <time>2023-01-29T09:11:49.841Z</time>
      </trkpt>
      <trkpt lat="45.56737" lon="6.61707">
        <ele>1564</ele>
        <time>2023-01-29T09:12:08.835Z</time>
      </trkpt>
      <trkpt lat="45.56737" lon="6.61707">
        <ele>1564</ele>
        <time>2023-01-29T09:13:53.776Z</time>
      </trkpt>
      <trkpt lat="45.5675" lon="6.6168">
        <ele>1576</ele>
        <time>2023-01-29T09:13:54.774Z</time>
      </trkpt>
      <trkpt lat="45.56754" lon="6.61668">
        <ele>1584</ele>
        <time>2023-01-29T09:14:15.816Z</time>
      </trkpt>
      <trkpt lat="45.56756" lon="6.6167">
        <ele>1586</ele>
        <time>2023-01-29T09:14:21.799Z</time>
      </trkpt>
      <trkpt lat="45.56756" lon="6.6167">
        <ele>1586</ele>
        <time>2023-01-29T09:15:23.763Z</time>
      </trkpt>
      <trkpt lat="45.56777" lon="6.61679">
        <ele>1610</ele>
        <time>2023-01-29T09:15:24.761Z</time>
      </trkpt>
      <trkpt lat="45.56783" lon="6.6167">
        <ele>1611</ele>
        <time>2023-01-29T09:15:33.812Z</time>
      </trkpt>
      <trkpt lat="45.56789" lon="6.6166">
        <ele>1612</ele>
        <time>2023-01-29T09:15:45.764Z</time>
      </trkpt>
      <trkpt lat="45.56795" lon="6.61649">
        <ele>1610</ele>
        <time>2023-01-29T09:16:03.773Z</time>
      </trkpt>
      <trkpt lat="45.568" lon="6.61638">
        <ele>1609</ele>
        <time>2023-01-29T09:16:17.795Z</time>
      </trkpt>
      <trkpt lat="45.56806" lon="6.61628">
        <ele>1609</ele>
        <time>2023-01-29T09:16:33.793Z</time>
      </trkpt>
      <trkpt lat="45.56811" lon="6.61617">
        <ele>1608</ele>
        <time>2023-01-29T09:16:46.757Z</time>
      </trkpt>
      <trkpt lat="45.56818" lon="6.61609">
        <ele>1611</ele>
        <time>2023-01-29T09:17:10.797Z</time>
      </trkpt>
      <trkpt lat="45.56828" lon="6.61607">
        <ele>1614</ele>
        <time>2023-01-29T09:17:21.775Z</time>
      </trkpt>
      <trkpt lat="45.56836" lon="6.61602">
        <ele>1616</ele>
        <time>2023-01-29T09:17:29.814Z</time>
      </trkpt>
      <trkpt lat="45.56844" lon="6.61596">
        <ele>1619</ele>
        <time>2023-01-29T09:17:38.819Z</time>
      </trkpt>
      <trkpt lat="45.56851" lon="6.61586">
        <ele>1621</ele>
        <time>2023-01-29T09:17:47.792Z</time>
      </trkpt>
      <trkpt lat="45.56859" lon="6.61578">
        <ele>1623</ele>
        <time>2023-01-29T09:17:56.810Z</time>
      </trkpt>
      <trkpt lat="45.56867" lon="6.6157">
        <ele>1625</ele>
        <time>2023-01-29T09:18:05.776Z</time>
      </trkpt>
      <trkpt lat="45.56875" lon="6.61564">
        <ele>1626</ele>
        <time>2023-01-29T09:18:13.808Z</time>
      </trkpt>
      <trkpt lat="45.56883" lon="6.61557">
        <ele>1628</ele>
        <time>2023-01-29T09:18:22.775Z</time>
      </trkpt>
      <trkpt lat="45.56892" lon="6.61553">
        <ele>1629</ele>
        <time>2023-01-29T09:18:32.788Z</time>
      </trkpt>
      <trkpt lat="45.56901" lon="6.61551">
        <ele>1631</ele>
        <time>2023-01-29T09:18:41.762Z</time>
      </trkpt>
      <trkpt lat="45.56911" lon="6.61549">
        <ele>1631</ele>
        <time>2023-01-29T09:18:50.811Z</time>
      </trkpt>
      <trkpt lat="45.56919" lon="6.61543">
        <ele>1632</ele>
        <time>2023-01-29T09:18:59.810Z</time>
      </trkpt>
      <trkpt lat="45.56928" lon="6.61537">
        <ele>1632</ele>
        <time>2023-01-29T09:19:08.794Z</time>
      </trkpt>
      <trkpt lat="45.56936" lon="6.61531">
        <ele>1632</ele>
        <time>2023-01-29T09:19:17.781Z</time>
      </trkpt>
      <trkpt lat="45.56943" lon="6.61521">
        <ele>1633</ele>
        <time>2023-01-29T09:19:26.809Z</time>
      </trkpt>
      <trkpt lat="45.56951" lon="6.61511">
        <ele>1633</ele>
        <time>2023-01-29T09:19:36.832Z</time>
      </trkpt>
      <trkpt lat="45.56959" lon="6.61504">
        <ele>1634</ele>
        <time>2023-01-29T09:19:45.752Z</time>
      </trkpt>
      <trkpt lat="45.56968" lon="6.61499">
        <ele>1635</ele>
        <time>2023-01-29T09:19:55.823Z</time>
      </trkpt>
      <trkpt lat="45.56975" lon="6.61489">
        <ele>1636</ele>
        <time>2023-01-29T09:20:05.820Z</time>
      </trkpt>
      <trkpt lat="45.56982" lon="6.6148">
        <ele>1638</ele>
        <time>2023-01-29T09:20:14.808Z</time>
      </trkpt>
      <trkpt lat="45.56987" lon="6.61469">
        <ele>1639</ele>
        <time>2023-01-29T09:20:22.776Z</time>
      </trkpt>
      <trkpt lat="45.56995" lon="6.61463">
        <ele>1640</ele>
        <time>2023-01-29T09:20:31.832Z</time>
      </trkpt>
      <trkpt lat="45.57005" lon="6.61458">
        <ele>1641</ele>
        <time>2023-01-29T09:20:41.815Z</time>
      </trkpt>
      <trkpt lat="45.57013" lon="6.6145">
        <ele>1642</ele>
        <time>2023-01-29T09:20:50.782Z</time>
      </trkpt>
      <trkpt lat="45.57019" lon="6.61439">
        <ele>1643</ele>
        <time>2023-01-29T09:20:58.746Z</time>
      </trkpt>
      <trkpt lat="45.57026" lon="6.61429">
        <ele>1644</ele>
        <time>2023-01-29T09:21:08.809Z</time>
      </trkpt>
      <trkpt lat="45.57032" lon="6.61419">
        <ele>1646</ele>
        <time>2023-01-29T09:21:15.790Z</time>
      </trkpt>
      <trkpt lat="45.5704" lon="6.61411">
        <ele>1648</ele>
        <time>2023-01-29T09:21:24.833Z</time>
      </trkpt>
      <trkpt lat="45.5705" lon="6.6141">
        <ele>1650</ele>
        <time>2023-01-29T09:21:33.835Z</time>
      </trkpt>
      <trkpt lat="45.57059" lon="6.61406">
        <ele>1652</ele>
        <time>2023-01-29T09:21:42.811Z</time>
      </trkpt>
      <trkpt lat="45.57068" lon="6.61402">
        <ele>1654</ele>
        <time>2023-01-29T09:21:50.809Z</time>
      </trkpt>
      <trkpt lat="45.57077" lon="6.61396">
        <ele>1656</ele>
        <time>2023-01-29T09:22:00.778Z</time>
      </trkpt>
      <trkpt lat="45.57085" lon="6.61388">
        <ele>1657</ele>
        <time>2023-01-29T09:22:11.817Z</time>
      </trkpt>
      <trkpt lat="45.57092" lon="6.61381">
        <ele>1658</ele>
        <time>2023-01-29T09:22:19.822Z</time>
      </trkpt>
      <trkpt lat="45.57101" lon="6.61374">
        <ele>1658</ele>
        <time>2023-01-29T09:22:28.827Z</time>
      </trkpt>
      <trkpt lat="45.57108" lon="6.61366">
        <ele>1658</ele>
        <time>2023-01-29T09:22:36.773Z</time>
      </trkpt>
      <trkpt lat="45.57114" lon="6.61355">
        <ele>1658</ele>
        <time>2023-01-29T09:22:45.814Z</time>
      </trkpt>
      <trkpt lat="45.57122" lon="6.61347">
        <ele>1658</ele>
        <time>2023-01-29T09:22:52.832Z</time>
      </trkpt>
      <trkpt lat="45.57127" lon="6.61336">
        <ele>1658</ele>
        <time>2023-01-29T09:22:59.781Z</time>
      </trkpt>
      <trkpt lat="45.57132" lon="6.61324">
        <ele>1657</ele>
        <time>2023-01-29T09:23:05.817Z</time>
      </trkpt>
      <trkpt lat="45.57137" lon="6.61313">
        <ele>1656</ele>
        <time>2023-01-29T09:23:12.772Z</time>
      </trkpt>
      <trkpt lat="45.57143" lon="6.61303">
        <ele>1656</ele>
        <time>2023-01-29T09:23:19.820Z</time>
      </trkpt>
      <trkpt lat="45.57149" lon="6.61293">
        <ele>1655</ele>
        <time>2023-01-29T09:23:27.782Z</time>
      </trkpt>
      <trkpt lat="45.57157" lon="6.61284">
        <ele>1654</ele>
        <time>2023-01-29T09:23:35.769Z</time>
      </trkpt>
      <trkpt lat="45.57163" lon="6.61274">
        <ele>1653</ele>
        <time>2023-01-29T09:23:44.821Z</time>
      </trkpt>
      <trkpt lat="45.57167" lon="6.61261">
        <ele>1653</ele>
        <time>2023-01-29T09:23:55.803Z</time>
      </trkpt>
      <trkpt lat="45.57168" lon="6.61248">
        <ele>1652</ele>
        <time>2023-01-29T09:24:06.810Z</time>
      </trkpt>
      <trkpt lat="45.57165" lon="6.61235">
        <ele>1652</ele>
        <time>2023-01-29T09:24:17.799Z</time>
      </trkpt>
      <trkpt lat="45.57162" lon="6.61223">
        <ele>1651</ele>
        <time>2023-01-29T09:24:26.802Z</time>
      </trkpt>
      <trkpt lat="45.57158" lon="6.61211">
        <ele>1649</ele>
        <time>2023-01-29T09:24:35.820Z</time>
      </trkpt>
      <trkpt lat="45.57155" lon="6.61198">
        <ele>1648</ele>
        <time>2023-01-29T09:24:44.819Z</time>
      </trkpt>
      <trkpt lat="45.57153" lon="6.61185">
        <ele>1648</ele>
        <time>2023-01-29T09:24:53.815Z</time>
      </trkpt>
      <trkpt lat="45.57156" lon="6.61171">
        <ele>1649</ele>
        <time>2023-01-29T09:25:03.808Z</time>
      </trkpt>
      <trkpt lat="45.57163" lon="6.61162">
        <ele>1652</ele>
        <time>2023-01-29T09:25:13.793Z</time>
      </trkpt>
      <trkpt lat="45.57168" lon="6.61149">
        <ele>1655</ele>
        <time>2023-01-29T09:25:21.810Z</time>
      </trkpt>
      <trkpt lat="45.57171" lon="6.61136">
        <ele>1657</ele>
        <time>2023-01-29T09:25:28.786Z</time>
      </trkpt>
      <trkpt lat="45.57174" lon="6.61123">
        <ele>1659</ele>
        <time>2023-01-29T09:25:34.781Z</time>
      </trkpt>
      <trkpt lat="45.57177" lon="6.61111">
        <ele>1661</ele>
        <time>2023-01-29T09:25:42.816Z</time>
      </trkpt>
      <trkpt lat="45.5718" lon="6.61097">
        <ele>1662</ele>
        <time>2023-01-29T09:25:55.821Z</time>
      </trkpt>
      <trkpt lat="45.57186" lon="6.61087">
        <ele>1662</ele>
        <time>2023-01-29T09:26:04.769Z</time>
      </trkpt>
      <trkpt lat="45.57191" lon="6.61076">
        <ele>1663</ele>
        <time>2023-01-29T09:26:13.831Z</time>
      </trkpt>
      <trkpt lat="45.57197" lon="6.61065">
        <ele>1664</ele>
        <time>2023-01-29T09:26:22.794Z</time>
      </trkpt>
      <trkpt lat="45.57203" lon="6.61054">
        <ele>1665</ele>
        <time>2023-01-29T09:26:32.765Z</time>
      </trkpt>
      <trkpt lat="45.5721" lon="6.61045">
        <ele>1666</ele>
        <time>2023-01-29T09:26:41.828Z</time>
      </trkpt>
      <trkpt lat="45.57217" lon="6.61037">
        <ele>1666</ele>
        <time>2023-01-29T09:26:50.806Z</time>
      </trkpt>
      <trkpt lat="45.57225" lon="6.61029">
        <ele>1666</ele>
        <time>2023-01-29T09:26:58.813Z</time>
      </trkpt>
      <trkpt lat="45.57232" lon="6.61021">
        <ele>1666</ele>
        <time>2023-01-29T09:27:07.816Z</time>
      </trkpt>
      <trkpt lat="45.57238" lon="6.61009">
        <ele>1667</ele>
        <time>2023-01-29T09:27:15.757Z</time>
      </trkpt>
      <trkpt lat="45.57243" lon="6.60998">
        <ele>1669</ele>
        <time>2023-01-29T09:27:32.830Z</time>
      </trkpt>
      <trkpt lat="45.57248" lon="6.60986">
        <ele>1670</ele>
        <time>2023-01-29T09:27:42.772Z</time>
      </trkpt>
      <trkpt lat="45.57253" lon="6.60974">
        <ele>1672</ele>
        <time>2023-01-29T09:27:51.815Z</time>
      </trkpt>
      <trkpt lat="45.57256" lon="6.60961">
        <ele>1673</ele>
        <time>2023-01-29T09:28:00.827Z</time>
      </trkpt>
      <trkpt lat="45.57258" lon="6.60948">
        <ele>1675</ele>
        <time>2023-01-29T09:28:10.819Z</time>
      </trkpt>
      <trkpt lat="45.57256" lon="6.60935">
        <ele>1676</ele>
        <time>2023-01-29T09:28:21.838Z</time>
      </trkpt>
      <trkpt lat="45.57255" lon="6.60921">
        <ele>1677</ele>
        <time>2023-01-29T09:28:34.741Z</time>
      </trkpt>
      <trkpt lat="45.57259" lon="6.60909">
        <ele>1676</ele>
        <time>2023-01-29T09:28:45.814Z</time>
      </trkpt>
      <trkpt lat="45.57265" lon="6.60898">
        <ele>1674</ele>
        <time>2023-01-29T09:28:58.830Z</time>
      </trkpt>
      <trkpt lat="45.5727" lon="6.60887">
        <ele>1672</ele>
        <time>2023-01-29T09:29:08.792Z</time>
      </trkpt>
      <trkpt lat="45.57271" lon="6.60873">
        <ele>1669</ele>
        <time>2023-01-29T09:29:19.835Z</time>
      </trkpt>
      <trkpt lat="45.57269" lon="6.6086">
        <ele>1666</ele>
        <time>2023-01-29T09:29:30.846Z</time>
      </trkpt>
      <trkpt lat="45.57265" lon="6.60848">
        <ele>1664</ele>
        <time>2023-01-29T09:29:38.820Z</time>
      </trkpt>
      <trkpt lat="45.57265" lon="6.60835">
        <ele>1662</ele>
        <time>2023-01-29T09:29:48.791Z</time>
      </trkpt>
      <trkpt lat="45.57268" lon="6.60821">
        <ele>1660</ele>
        <time>2023-01-29T09:30:00.805Z</time>
      </trkpt>
      <trkpt lat="45.57267" lon="6.60808">
        <ele>1659</ele>
        <time>2023-01-29T09:30:11.770Z</time>
      </trkpt>
      <trkpt lat="45.57265" lon="6.60795">
        <ele>1657</ele>
        <time>2023-01-29T09:30:19.848Z</time>
      </trkpt>
      <trkpt lat="45.57261" lon="6.60782">
        <ele>1656</ele>
        <time>2023-01-29T09:30:29.845Z</time>
      </trkpt>
      <trkpt lat="45.57258" lon="6.6077">
        <ele>1655</ele>
        <time>2023-01-29T09:30:38.820Z</time>
      </trkpt>
      <trkpt lat="45.57255" lon="6.60757">
        <ele>1653</ele>
        <time>2023-01-29T09:30:48.810Z</time>
      </trkpt>
      <trkpt lat="45.5725" lon="6.60745">
        <ele>1652</ele>
        <time>2023-01-29T09:30:57.813Z</time>
      </trkpt>
      <trkpt lat="45.57243" lon="6.60734">
        <ele>1652</ele>
        <time>2023-01-29T09:31:05.744Z</time>
      </trkpt>
      <trkpt lat="45.57237" lon="6.60725">
        <ele>1652</ele>
        <time>2023-01-29T09:31:13.816Z</time>
      </trkpt>
      <trkpt lat="45.5723" lon="6.60715">
        <ele>1652</ele>
        <time>2023-01-29T09:31:21.846Z</time>
      </trkpt>
      <trkpt lat="45.57223" lon="6.60705">
        <ele>1652</ele>
        <time>2023-01-29T09:31:30.841Z</time>
      </trkpt>
      <trkpt lat="45.57216" lon="6.60695">
        <ele>1653</ele>
        <time>2023-01-29T09:31:41.840Z</time>
      </trkpt>
      <trkpt lat="45.5721" lon="6.60685">
        <ele>1654</ele>
        <time>2023-01-29T09:31:51.828Z</time>
      </trkpt>
      <trkpt lat="45.57209" lon="6.60672">
        <ele>1656</ele>
        <time>2023-01-29T09:32:03.825Z</time>
      </trkpt>
      <trkpt lat="45.57206" lon="6.60658">
        <ele>1659</ele>
        <time>2023-01-29T09:32:14.840Z</time>
      </trkpt>
      <trkpt lat="45.57204" lon="6.60645">
        <ele>1662</ele>
        <time>2023-01-29T09:32:22.837Z</time>
      </trkpt>
      <trkpt lat="45.57201" lon="6.60632">
        <ele>1664</ele>
        <time>2023-01-29T09:32:33.813Z</time>
      </trkpt>
      <trkpt lat="45.57198" lon="6.60619">
        <ele>1666</ele>
        <time>2023-01-29T09:32:44.857Z</time>
      </trkpt>
      <trkpt lat="45.57197" lon="6.60605">
        <ele>1667</ele>
        <time>2023-01-29T09:32:54.830Z</time>
      </trkpt>
      <trkpt lat="45.57198" lon="6.60591">
        <ele>1667</ele>
        <time>2023-01-29T09:33:04.821Z</time>
      </trkpt>
      <trkpt lat="45.57196" lon="6.60578">
        <ele>1668</ele>
        <time>2023-01-29T09:33:14.832Z</time>
      </trkpt>
      <trkpt lat="45.57192" lon="6.60565">
        <ele>1669</ele>
        <time>2023-01-29T09:33:23.824Z</time>
      </trkpt>
      <trkpt lat="45.57189" lon="6.60553">
        <ele>1670</ele>
        <time>2023-01-29T09:33:31.779Z</time>
      </trkpt>
      <trkpt lat="45.57185" lon="6.60541">
        <ele>1670</ele>
        <time>2023-01-29T09:33:40.826Z</time>
      </trkpt>
      <trkpt lat="45.57182" lon="6.60528">
        <ele>1672</ele>
        <time>2023-01-29T09:33:50.824Z</time>
      </trkpt>
      <trkpt lat="45.5718" lon="6.60515">
        <ele>1673</ele>
        <time>2023-01-29T09:34:00.813Z</time>
      </trkpt>
      <trkpt lat="45.57179" lon="6.60502">
        <ele>1675</ele>
        <time>2023-01-29T09:34:09.841Z</time>
      </trkpt>
      <trkpt lat="45.57178" lon="6.60488">
        <ele>1677</ele>
        <time>2023-01-29T09:34:18.771Z</time>
      </trkpt>
      <trkpt lat="45.57177" lon="6.60475">
        <ele>1679</ele>
        <time>2023-01-29T09:34:27.814Z</time>
      </trkpt>
      <trkpt lat="45.57172" lon="6.60461">
        <ele>1681</ele>
        <time>2023-01-29T09:34:35.811Z</time>
      </trkpt>
      <trkpt lat="45.5717" lon="6.60449">
        <ele>1683</ele>
        <time>2023-01-29T09:34:44.820Z</time>
      </trkpt>
      <trkpt lat="45.57167" lon="6.60436">
        <ele>1685</ele>
        <time>2023-01-29T09:34:54.837Z</time>
      </trkpt>
      <trkpt lat="45.57165" lon="6.60431">
        <ele>1690</ele>
        <time>2023-01-29T09:35:11.829Z</time>
      </trkpt>
      <trkpt lat="45.57165" lon="6.60431">
        <ele>1690</ele>
        <time>2023-01-29T09:43:34.804Z</time>
      </trkpt>
      <trkpt lat="45.57155" lon="6.60401">
        <ele>1718</ele>
        <time>2023-01-29T09:43:35.794Z</time>
      </trkpt>
      <trkpt lat="45.57161" lon="6.6039">
        <ele>1720</ele>
        <time>2023-01-29T09:43:47.823Z</time>
      </trkpt>
      <trkpt lat="45.57168" lon="6.60379">
        <ele>1722</ele>
        <time>2023-01-29T09:43:55.759Z</time>
      </trkpt>
      <trkpt lat="45.57172" lon="6.60367">
        <ele>1724</ele>
        <time>2023-01-29T09:44:03.785Z</time>
      </trkpt>
      <trkpt lat="45.57179" lon="6.60357">
        <ele>1725</ele>
        <time>2023-01-29T09:44:12.762Z</time>
      </trkpt>
      <trkpt lat="45.57187" lon="6.6035">
        <ele>1726</ele>
        <time>2023-01-29T09:44:21.828Z</time>
      </trkpt>
      <trkpt lat="45.57194" lon="6.60341">
        <ele>1726</ele>
        <time>2023-01-29T09:44:27.779Z</time>
      </trkpt>
      <trkpt lat="45.57201" lon="6.60331">
        <ele>1727</ele>
        <time>2023-01-29T09:44:35.830Z</time>
      </trkpt>
      <trkpt lat="45.57207" lon="6.6032">
        <ele>1728</ele>
        <time>2023-01-29T09:44:44.809Z</time>
      </trkpt>
      <trkpt lat="45.57214" lon="6.60309">
        <ele>1729</ele>
        <time>2023-01-29T09:44:52.766Z</time>
      </trkpt>
      <trkpt lat="45.57219" lon="6.60298">
        <ele>1730</ele>
        <time>2023-01-29T09:44:59.823Z</time>
      </trkpt>
      <trkpt lat="45.57225" lon="6.60288">
        <ele>1731</ele>
        <time>2023-01-29T09:45:08.827Z</time>
      </trkpt>
      <trkpt lat="45.57232" lon="6.60277">
        <ele>1732</ele>
        <time>2023-01-29T09:45:17.846Z</time>
      </trkpt>
      <trkpt lat="45.57239" lon="6.60266">
        <ele>1732</ele>
        <time>2023-01-29T09:45:24.821Z</time>
      </trkpt>
      <trkpt lat="45.57245" lon="6.60255">
        <ele>1732</ele>
        <time>2023-01-29T09:45:31.837Z</time>
      </trkpt>
      <trkpt lat="45.57251" lon="6.60246">
        <ele>1732</ele>
        <time>2023-01-29T09:45:38.833Z</time>
      </trkpt>
      <trkpt lat="45.57259" lon="6.60237">
        <ele>1732</ele>
        <time>2023-01-29T09:45:45.751Z</time>
      </trkpt>
      <trkpt lat="45.57268" lon="6.6023">
        <ele>1732</ele>
        <time>2023-01-29T09:45:52.838Z</time>
      </trkpt>
      <trkpt lat="45.57274" lon="6.60221">
        <ele>1732</ele>
        <time>2023-01-29T09:45:59.817Z</time>
      </trkpt>
      <trkpt lat="45.57281" lon="6.60211">
        <ele>1732</ele>
        <time>2023-01-29T09:46:07.799Z</time>
      </trkpt>
      <trkpt lat="45.57287" lon="6.60201">
        <ele>1732</ele>
        <time>2023-01-29T09:46:14.832Z</time>
      </trkpt>
      <trkpt lat="45.57294" lon="6.60191">
        <ele>1732</ele>
        <time>2023-01-29T09:46:22.852Z</time>
      </trkpt>
      <trkpt lat="45.573" lon="6.60182">
        <ele>1733</ele>
        <time>2023-01-29T09:46:31.852Z</time>
      </trkpt>
      <trkpt lat="45.57305" lon="6.60169">
        <ele>1733</ele>
        <time>2023-01-29T09:46:40.776Z</time>
      </trkpt>
      <trkpt lat="45.5731" lon="6.60157">
        <ele>1734</ele>
        <time>2023-01-29T09:46:49.792Z</time>
      </trkpt>
      <trkpt lat="45.57315" lon="6.60145">
        <ele>1734</ele>
        <time>2023-01-29T09:46:57.830Z</time>
      </trkpt>
      <trkpt lat="45.57323" lon="6.60137">
        <ele>1735</ele>
        <time>2023-01-29T09:47:04.865Z</time>
      </trkpt>
      <trkpt lat="45.5733" lon="6.60127">
        <ele>1736</ele>
        <time>2023-01-29T09:47:12.855Z</time>
      </trkpt>
      <trkpt lat="45.57338" lon="6.60119">
        <ele>1737</ele>
        <time>2023-01-29T09:47:19.834Z</time>
      </trkpt>
      <trkpt lat="45.57346" lon="6.60113">
        <ele>1738</ele>
        <time>2023-01-29T09:47:27.845Z</time>
      </trkpt>
      <trkpt lat="45.57355" lon="6.60109">
        <ele>1741</ele>
        <time>2023-01-29T09:47:58.804Z</time>
      </trkpt>
      <trkpt lat="45.57356" lon="6.60107">
        <ele>1741</ele>
        <time>2023-01-29T09:48:12.822Z</time>
      </trkpt>
      <trkpt lat="45.57356" lon="6.60107">
        <ele>1741</ele>
        <time>2023-01-29T09:49:38.776Z</time>
      </trkpt>
      <trkpt lat="45.57377" lon="6.60096">
        <ele>1741</ele>
        <time>2023-01-29T09:49:39.802Z</time>
      </trkpt>
      <trkpt lat="45.57385" lon="6.60089">
        <ele>1741</ele>
        <time>2023-01-29T09:49:49.818Z</time>
      </trkpt>
      <trkpt lat="45.57394" lon="6.60084">
        <ele>1742</ele>
        <time>2023-01-29T09:49:59.817Z</time>
      </trkpt>
      <trkpt lat="45.57403" lon="6.60078">
        <ele>1744</ele>
        <time>2023-01-29T09:50:07.791Z</time>
      </trkpt>
      <trkpt lat="45.57411" lon="6.60072">
        <ele>1745</ele>
        <time>2023-01-29T09:50:16.805Z</time>
      </trkpt>
      <trkpt lat="45.5742" lon="6.60066">
        <ele>1747</ele>
        <time>2023-01-29T09:50:28.805Z</time>
      </trkpt>
      <trkpt lat="45.57428" lon="6.60059">
        <ele>1749</ele>
        <time>2023-01-29T09:50:39.798Z</time>
      </trkpt>
      <trkpt lat="45.57436" lon="6.60051">
        <ele>1750</ele>
        <time>2023-01-29T09:50:49.829Z</time>
      </trkpt>
      <trkpt lat="45.57445" lon="6.60047">
        <ele>1751</ele>
        <time>2023-01-29T09:50:59.821Z</time>
      </trkpt>
      <trkpt lat="45.57455" lon="6.60044">
        <ele>1752</ele>
        <time>2023-01-29T09:51:11.762Z</time>
      </trkpt>
      <trkpt lat="45.57465" lon="6.60042">
        <ele>1753</ele>
        <time>2023-01-29T09:51:21.824Z</time>
      </trkpt>
      <trkpt lat="45.57474" lon="6.60041">
        <ele>1754</ele>
        <time>2023-01-29T09:51:33.805Z</time>
      </trkpt>
      <trkpt lat="45.57482" lon="6.60034">
        <ele>1756</ele>
        <time>2023-01-29T09:51:48.822Z</time>
      </trkpt>
      <trkpt lat="45.57491" lon="6.60028">
        <ele>1757</ele>
        <time>2023-01-29T09:51:59.792Z</time>
      </trkpt>
      <trkpt lat="45.575" lon="6.60024">
        <ele>1759</ele>
        <time>2023-01-29T09:52:13.837Z</time>
      </trkpt>
      <trkpt lat="45.5751" lon="6.6002">
        <ele>1760</ele>
        <time>2023-01-29T09:52:25.832Z</time>
      </trkpt>
      <trkpt lat="45.57519" lon="6.60015">
        <ele>1761</ele>
        <time>2023-01-29T09:52:35.813Z</time>
      </trkpt>
      <trkpt lat="45.57527" lon="6.60008">
        <ele>1763</ele>
        <time>2023-01-29T09:52:48.800Z</time>
      </trkpt>
      <trkpt lat="45.57535" lon="6.60003">
        <ele>1764</ele>
        <time>2023-01-29T09:52:56.793Z</time>
      </trkpt>
      <trkpt lat="45.57542" lon="6.59994">
        <ele>1766</ele>
        <time>2023-01-29T09:53:07.810Z</time>
      </trkpt>
      <trkpt lat="45.57549" lon="6.59985">
        <ele>1767</ele>
        <time>2023-01-29T09:53:17.815Z</time>
      </trkpt>
      <trkpt lat="45.57555" lon="6.59974">
        <ele>1768</ele>
        <time>2023-01-29T09:53:26.837Z</time>
      </trkpt>
      <trkpt lat="45.57559" lon="6.59962">
        <ele>1768</ele>
        <time>2023-01-29T09:53:36.819Z</time>
      </trkpt>
      <trkpt lat="45.57563" lon="6.5995">
        <ele>1769</ele>
        <time>2023-01-29T09:53:46.829Z</time>
      </trkpt>
      <trkpt lat="45.57571" lon="6.59941">
        <ele>1770</ele>
        <time>2023-01-29T09:53:58.805Z</time>
      </trkpt>
      <trkpt lat="45.57578" lon="6.59933">
        <ele>1773</ele>
        <time>2023-01-29T09:54:16.809Z</time>
      </trkpt>
      <trkpt lat="45.57585" lon="6.59923">
        <ele>1774</ele>
        <time>2023-01-29T09:54:30.817Z</time>
      </trkpt>
      <trkpt lat="45.5759" lon="6.59911">
        <ele>1775</ele>
        <time>2023-01-29T09:54:41.814Z</time>
      </trkpt>
      <trkpt lat="45.57596" lon="6.59901">
        <ele>1776</ele>
        <time>2023-01-29T09:54:52.845Z</time>
      </trkpt>
      <trkpt lat="45.576" lon="6.59887">
        <ele>1777</ele>
        <time>2023-01-29T09:55:03.815Z</time>
      </trkpt>
      <trkpt lat="45.57605" lon="6.59877">
        <ele>1779</ele>
        <time>2023-01-29T09:55:14.826Z</time>
      </trkpt>
      <trkpt lat="45.5761" lon="6.59866">
        <ele>1781</ele>
        <time>2023-01-29T09:55:24.813Z</time>
      </trkpt>
      <trkpt lat="45.57613" lon="6.59853">
        <ele>1783</ele>
        <time>2023-01-29T09:55:37.835Z</time>
      </trkpt>
      <trkpt lat="45.57616" lon="6.5984">
        <ele>1785</ele>
        <time>2023-01-29T09:55:46.848Z</time>
      </trkpt>
      <trkpt lat="45.57617" lon="6.59826">
        <ele>1787</ele>
        <time>2023-01-29T09:55:55.823Z</time>
      </trkpt>
      <trkpt lat="45.57615" lon="6.59813">
        <ele>1790</ele>
        <time>2023-01-29T09:56:06.824Z</time>
      </trkpt>
      <trkpt lat="45.57623" lon="6.59806">
        <ele>1794</ele>
        <time>2023-01-29T09:56:24.819Z</time>
      </trkpt>
      <trkpt lat="45.57632" lon="6.59802">
        <ele>1796</ele>
        <time>2023-01-29T09:56:34.840Z</time>
      </trkpt>
      <trkpt lat="45.57641" lon="6.59797">
        <ele>1798</ele>
        <time>2023-01-29T09:56:48.826Z</time>
      </trkpt>
      <trkpt lat="45.57649" lon="6.59795">
        <ele>1799</ele>
        <time>2023-01-29T09:57:00.801Z</time>
      </trkpt>
      <trkpt lat="45.57659" lon="6.59795">
        <ele>1801</ele>
        <time>2023-01-29T09:57:19.825Z</time>
      </trkpt>
      <trkpt lat="45.57668" lon="6.59788">
        <ele>1802</ele>
        <time>2023-01-29T09:57:32.822Z</time>
      </trkpt>
      <trkpt lat="45.57677" lon="6.59784">
        <ele>1803</ele>
        <time>2023-01-29T09:57:43.859Z</time>
      </trkpt>
      <trkpt lat="45.57686" lon="6.5978">
        <ele>1805</ele>
        <time>2023-01-29T09:57:56.836Z</time>
      </trkpt>
      <trkpt lat="45.57696" lon="6.59778">
        <ele>1807</ele>
        <time>2023-01-29T09:58:07.826Z</time>
      </trkpt>
      <trkpt lat="45.57705" lon="6.59777">
        <ele>1809</ele>
        <time>2023-01-29T09:58:24.827Z</time>
      </trkpt>
      <trkpt lat="45.57715" lon="6.59773">
        <ele>1811</ele>
        <time>2023-01-29T09:58:39.830Z</time>
      </trkpt>
      <trkpt lat="45.57724" lon="6.59771">
        <ele>1813</ele>
        <time>2023-01-29T09:58:52.832Z</time>
      </trkpt>
      <trkpt lat="45.5773" lon="6.5976">
        <ele>1814</ele>
        <time>2023-01-29T09:59:03.805Z</time>
      </trkpt>
      <trkpt lat="45.57739" lon="6.59759">
        <ele>1817</ele>
        <time>2023-01-29T09:59:17.835Z</time>
      </trkpt>
      <trkpt lat="45.5774" lon="6.59758">
        <ele>1819</ele>
        <time>2023-01-29T09:59:29.803Z</time>
      </trkpt>
      <trkpt lat="45.5774" lon="6.59758">
        <ele>1819</ele>
        <time>2023-01-29T10:06:25.775Z</time>
      </trkpt>
      <trkpt lat="45.57762" lon="6.59769">
        <ele>1829</ele>
        <time>2023-01-29T10:06:26.788Z</time>
      </trkpt>
      <trkpt lat="45.5777" lon="6.59777">
        <ele>1829</ele>
        <time>2023-01-29T10:06:37.786Z</time>
      </trkpt>
      <trkpt lat="45.57778" lon="6.59783">
        <ele>1829</ele>
        <time>2023-01-29T10:06:50.775Z</time>
      </trkpt>
      <trkpt lat="45.57778" lon="6.59783">
        <ele>1829</ele>
        <time>2023-01-29T10:07:03.795Z</time>
      </trkpt>
      <trkpt lat="45.57778" lon="6.59783">
        <ele>1829</ele>
        <time>2023-01-29T10:08:43.797Z</time>
      </trkpt>
      <trkpt lat="45.578" lon="6.59793">
        <ele>1842</ele>
        <time>2023-01-29T10:08:44.809Z</time>
      </trkpt>
      <trkpt lat="45.57809" lon="6.5979">
        <ele>1844</ele>
        <time>2023-01-29T10:08:54.808Z</time>
      </trkpt>
      <trkpt lat="45.57817" lon="6.59787">
        <ele>1845</ele>
        <time>2023-01-29T10:09:02.768Z</time>
      </trkpt>
      <trkpt lat="45.57826" lon="6.59782">
        <ele>1847</ele>
        <time>2023-01-29T10:09:13.780Z</time>
      </trkpt>
      <trkpt lat="45.57835" lon="6.59782">
        <ele>1849</ele>
        <time>2023-01-29T10:09:26.799Z</time>
      </trkpt>
      <trkpt lat="45.57844" lon="6.59781">
        <ele>1850</ele>
        <time>2023-01-29T10:09:37.797Z</time>
      </trkpt>
      <trkpt lat="45.57853" lon="6.59784">
        <ele>1852</ele>
        <time>2023-01-29T10:09:50.818Z</time>
      </trkpt>
      <trkpt lat="45.57862" lon="6.59785">
        <ele>1853</ele>
        <time>2023-01-29T10:10:02.798Z</time>
      </trkpt>
      <trkpt lat="45.57867" lon="6.59773">
        <ele>1855</ele>
        <time>2023-01-29T10:10:13.805Z</time>
      </trkpt>
      <trkpt lat="45.57868" lon="6.5976">
        <ele>1855</ele>
        <time>2023-01-29T10:10:25.822Z</time>
      </trkpt>
      <trkpt lat="45.57868" lon="6.59747">
        <ele>1855</ele>
        <time>2023-01-29T10:10:37.805Z</time>
      </trkpt>
      <trkpt lat="45.57866" lon="6.59734">
        <ele>1856</ele>
        <time>2023-01-29T10:10:46.823Z</time>
      </trkpt>
      <trkpt lat="45.57864" lon="6.5972">
        <ele>1856</ele>
        <time>2023-01-29T10:10:57.815Z</time>
      </trkpt>
      <trkpt lat="45.57864" lon="6.59707">
        <ele>1856</ele>
        <time>2023-01-29T10:11:11.838Z</time>
      </trkpt>
      <trkpt lat="45.57869" lon="6.59695">
        <ele>1857</ele>
        <time>2023-01-29T10:11:24.839Z</time>
      </trkpt>
      <trkpt lat="45.57875" lon="6.59686">
        <ele>1859</ele>
        <time>2023-01-29T10:11:39.829Z</time>
      </trkpt>
      <trkpt lat="45.57883" lon="6.59678">
        <ele>1862</ele>
        <time>2023-01-29T10:11:51.852Z</time>
      </trkpt>
      <trkpt lat="45.57891" lon="6.59671">
        <ele>1866</ele>
        <time>2023-01-29T10:12:08.787Z</time>
      </trkpt>
      <trkpt lat="45.57899" lon="6.59665">
        <ele>1869</ele>
        <time>2023-01-29T10:12:22.792Z</time>
      </trkpt>
      <trkpt lat="45.57907" lon="6.59658">
        <ele>1872</ele>
        <time>2023-01-29T10:12:33.801Z</time>
      </trkpt>
      <trkpt lat="45.57916" lon="6.59653">
        <ele>1875</ele>
        <time>2023-01-29T10:12:43.838Z</time>
      </trkpt>
      <trkpt lat="45.57925" lon="6.5965">
        <ele>1877</ele>
        <time>2023-01-29T10:12:58.803Z</time>
      </trkpt>
      <trkpt lat="45.57934" lon="6.59647">
        <ele>1879</ele>
        <time>2023-01-29T10:13:11.812Z</time>
      </trkpt>
      <trkpt lat="45.57943" lon="6.59644">
        <ele>1881</ele>
        <time>2023-01-29T10:13:23.852Z</time>
      </trkpt>
      <trkpt lat="45.57952" lon="6.59641">
        <ele>1883</ele>
        <time>2023-01-29T10:13:38.827Z</time>
      </trkpt>
      <trkpt lat="45.5796" lon="6.59633">
        <ele>1886</ele>
        <time>2023-01-29T10:13:55.815Z</time>
      </trkpt>
      <trkpt lat="45.57964" lon="6.59621">
        <ele>1888</ele>
        <time>2023-01-29T10:14:06.828Z</time>
      </trkpt>
      <trkpt lat="45.57973" lon="6.59624">
        <ele>1891</ele>
        <time>2023-01-29T10:14:28.805Z</time>
      </trkpt>
      <trkpt lat="45.57983" lon="6.59625">
        <ele>1893</ele>
        <time>2023-01-29T10:14:41.813Z</time>
      </trkpt>
      <trkpt lat="45.57992" lon="6.59628">
        <ele>1896</ele>
        <time>2023-01-29T10:14:54.800Z</time>
      </trkpt>
      <trkpt lat="45.58002" lon="6.59627">
        <ele>1899</ele>
        <time>2023-01-29T10:15:05.819Z</time>
      </trkpt>
      <trkpt lat="45.58009" lon="6.59618">
        <ele>1901</ele>
        <time>2023-01-29T10:15:17.821Z</time>
      </trkpt>
      <trkpt lat="45.58018" lon="6.59614">
        <ele>1904</ele>
        <time>2023-01-29T10:15:33.814Z</time>
      </trkpt>
      <trkpt lat="45.58027" lon="6.59611">
        <ele>1906</ele>
        <time>2023-01-29T10:15:47.830Z</time>
      </trkpt>
      <trkpt lat="45.58031" lon="6.59612">
        <ele>1909</ele>
        <time>2023-01-29T10:16:04.809Z</time>
      </trkpt>
      <trkpt lat="45.58031" lon="6.59612">
        <ele>1909</ele>
        <time>2023-01-29T10:17:29.753Z</time>
      </trkpt>
      <trkpt lat="45.5805" lon="6.59629">
        <ele>1917</ele>
        <time>2023-01-29T10:17:30.793Z</time>
      </trkpt>
      <trkpt lat="45.58048" lon="6.59642">
        <ele>1917</ele>
        <time>2023-01-29T10:17:33.818Z</time>
      </trkpt>
      <trkpt lat="45.58046" lon="6.59655">
        <ele>1916</ele>
        <time>2023-01-29T10:17:37.803Z</time>
      </trkpt>
      <trkpt lat="45.58042" lon="6.59667">
        <ele>1915</ele>
        <time>2023-01-29T10:17:47.827Z</time>
      </trkpt>
      <trkpt lat="45.58043" lon="6.5968">
        <ele>1914</ele>
        <time>2023-01-29T10:18:00.834Z</time>
      </trkpt>
      <trkpt lat="45.58044" lon="6.59683">
        <ele>1913</ele>
        <time>2023-01-29T10:18:07.831Z</time>
      </trkpt>
      <trkpt lat="45.58044" lon="6.59683">
        <ele>1913</ele>
        <time>2023-01-29T10:18:37.865Z</time>
      </trkpt>
      <trkpt lat="45.58061" lon="6.59704">
        <ele>1915</ele>
        <time>2023-01-29T10:18:38.860Z</time>
      </trkpt>
      <trkpt lat="45.58067" lon="6.59714">
        <ele>1916</ele>
        <time>2023-01-29T10:18:50.832Z</time>
      </trkpt>
      <trkpt lat="45.58071" lon="6.59726">
        <ele>1919</ele>
        <time>2023-01-29T10:19:02.841Z</time>
      </trkpt>
      <trkpt lat="45.58079" lon="6.59734">
        <ele>1922</ele>
        <time>2023-01-29T10:19:21.827Z</time>
      </trkpt>
      <trkpt lat="45.58085" lon="6.59743">
        <ele>1926</ele>
        <time>2023-01-29T10:19:38.787Z</time>
      </trkpt>
      <trkpt lat="45.5809" lon="6.59732">
        <ele>1928</ele>
        <time>2023-01-29T10:19:54.820Z</time>
      </trkpt>
      <trkpt lat="45.58091" lon="6.59731">
        <ele>1930</ele>
        <time>2023-01-29T10:20:06.828Z</time>
      </trkpt>
      <trkpt lat="45.58091" lon="6.59731">
        <ele>1930</ele>
        <time>2023-01-29T10:21:40.809Z</time>
      </trkpt>
      <trkpt lat="45.58113" lon="6.59734">
        <ele>1940</ele>
        <time>2023-01-29T10:21:41.831Z</time>
      </trkpt>
      <trkpt lat="45.58116" lon="6.59725">
        <ele>1942</ele>
        <time>2023-01-29T10:22:02.816Z</time>
      </trkpt>
      <trkpt lat="45.58116" lon="6.59725">
        <ele>1942</ele>
        <time>2023-01-29T10:23:15.823Z</time>
      </trkpt>
      <trkpt lat="45.58138" lon="6.59738">
        <ele>1955</ele>
        <time>2023-01-29T10:23:16.825Z</time>
      </trkpt>
      <trkpt lat="45.58145" lon="6.59747">
        <ele>1957</ele>
        <time>2023-01-29T10:23:29.829Z</time>
      </trkpt>
      <trkpt lat="45.58153" lon="6.59753">
        <ele>1960</ele>
        <time>2023-01-29T10:23:46.820Z</time>
      </trkpt>
      <trkpt lat="45.5816" lon="6.59762">
        <ele>1964</ele>
        <time>2023-01-29T10:24:05.796Z</time>
      </trkpt>
      <trkpt lat="45.58167" lon="6.59769">
        <ele>1968</ele>
        <time>2023-01-29T10:24:21.843Z</time>
      </trkpt>
      <trkpt lat="45.58172" lon="6.59771">
        <ele>1973</ele>
        <time>2023-01-29T10:24:44.821Z</time>
      </trkpt>
      <trkpt lat="45.58172" lon="6.59771">
        <ele>1973</ele>
        <time>2023-01-29T10:25:47.820Z</time>
      </trkpt>
      <trkpt lat="45.58194" lon="6.59763">
        <ele>1978</ele>
        <time>2023-01-29T10:25:48.747Z</time>
      </trkpt>
      <trkpt lat="45.58196" lon="6.5975">
        <ele>1980</ele>
        <time>2023-01-29T10:25:59.836Z</time>
      </trkpt>
      <trkpt lat="45.58205" lon="6.59749">
        <ele>1983</ele>
        <time>2023-01-29T10:26:27.771Z</time>
      </trkpt>
      <trkpt lat="45.58212" lon="6.59758">
        <ele>1987</ele>
        <time>2023-01-29T10:26:45.821Z</time>
      </trkpt>
      <trkpt lat="45.5822" lon="6.59764">
        <ele>1992</ele>
        <time>2023-01-29T10:27:03.828Z</time>
      </trkpt>
      <trkpt lat="45.58225" lon="6.59754">
        <ele>1997</ele>
        <time>2023-01-29T10:27:33.796Z</time>
      </trkpt>
      <trkpt lat="45.58229" lon="6.59742">
        <ele>1997</ele>
        <time>2023-01-29T10:27:50.790Z</time>
      </trkpt>
      <trkpt lat="45.58232" lon="6.5973">
        <ele>1997</ele>
        <time>2023-01-29T10:28:05.771Z</time>
      </trkpt>
      <trkpt lat="45.58234" lon="6.59716">
        <ele>1998</ele>
        <time>2023-01-29T10:28:21.800Z</time>
      </trkpt>
      <trkpt lat="45.58241" lon="6.59708">
        <ele>2002</ele>
        <time>2023-01-29T10:28:41.764Z</time>
      </trkpt>
      <trkpt lat="45.5825" lon="6.59711">
        <ele>2006</ele>
        <time>2023-01-29T10:28:55.838Z</time>
      </trkpt>
      <trkpt lat="45.58258" lon="6.59716">
        <ele>2011</ele>
        <time>2023-01-29T10:29:10.799Z</time>
      </trkpt>
      <trkpt lat="45.58264" lon="6.59706">
        <ele>2019</ele>
        <time>2023-01-29T10:29:35.769Z</time>
      </trkpt>
      <trkpt lat="45.58273" lon="6.59707">
        <ele>2022</ele>
        <time>2023-01-29T10:30:12.770Z</time>
      </trkpt>
      <trkpt lat="45.58282" lon="6.59712">
        <ele>2025</ele>
        <time>2023-01-29T10:30:26.770Z</time>
      </trkpt>
      <trkpt lat="45.5829" lon="6.59719">
        <ele>2027</ele>
        <time>2023-01-29T10:30:37.755Z</time>
      </trkpt>
      <trkpt lat="45.58298" lon="6.59727">
        <ele>2030</ele>
        <time>2023-01-29T10:30:51.791Z</time>
      </trkpt>
      <trkpt lat="45.58307" lon="6.59731">
        <ele>2032</ele>
        <time>2023-01-29T10:31:03.777Z</time>
      </trkpt>
      <trkpt lat="45.58316" lon="6.59733">
        <ele>2034</ele>
        <time>2023-01-29T10:31:16.785Z</time>
      </trkpt>
      <trkpt lat="45.58323" lon="6.5974">
        <ele>2036</ele>
        <time>2023-01-29T10:31:34.745Z</time>
      </trkpt>
      <trkpt lat="45.58327" lon="6.59742">
        <ele>2038</ele>
        <time>2023-01-29T10:31:51.786Z</time>
      </trkpt>
      <trkpt lat="45.58327" lon="6.59742">
        <ele>2038</ele>
        <time>2023-01-29T10:32:50.780Z</time>
      </trkpt>
      <trkpt lat="45.58349" lon="6.59749">
        <ele>2041</ele>
        <time>2023-01-29T10:32:51.768Z</time>
      </trkpt>
      <trkpt lat="45.58358" lon="6.59754">
        <ele>2042</ele>
        <time>2023-01-29T10:33:05.791Z</time>
      </trkpt>
      <trkpt lat="45.58367" lon="6.59757">
        <ele>2044</ele>
        <time>2023-01-29T10:33:18.753Z</time>
      </trkpt>
      <trkpt lat="45.58377" lon="6.59761">
        <ele>2046</ele>
        <time>2023-01-29T10:33:32.775Z</time>
      </trkpt>
      <trkpt lat="45.58386" lon="6.59763">
        <ele>2048</ele>
        <time>2023-01-29T10:33:48.780Z</time>
      </trkpt>
      <trkpt lat="45.58395" lon="6.59761">
        <ele>2049</ele>
        <time>2023-01-29T10:34:00.814Z</time>
      </trkpt>
      <trkpt lat="45.58403" lon="6.59764">
        <ele>2051</ele>
        <time>2023-01-29T10:34:14.814Z</time>
      </trkpt>
      <trkpt lat="45.58412" lon="6.59769">
        <ele>2055</ele>
        <time>2023-01-29T10:34:33.805Z</time>
      </trkpt>
      <trkpt lat="45.58421" lon="6.59771">
        <ele>2058</ele>
        <time>2023-01-29T10:34:46.815Z</time>
      </trkpt>
      <trkpt lat="45.5843" lon="6.59776">
        <ele>2060</ele>
        <time>2023-01-29T10:34:59.806Z</time>
      </trkpt>
      <trkpt lat="45.58436" lon="6.59786">
        <ele>2062</ele>
        <time>2023-01-29T10:35:15.813Z</time>
      </trkpt>
      <trkpt lat="45.58445" lon="6.59789">
        <ele>2065</ele>
        <time>2023-01-29T10:35:26.805Z</time>
      </trkpt>
      <trkpt lat="45.58454" lon="6.59795">
        <ele>2068</ele>
        <time>2023-01-29T10:35:38.811Z</time>
      </trkpt>
      <trkpt lat="45.58463" lon="6.59798">
        <ele>2070</ele>
        <time>2023-01-29T10:35:51.840Z</time>
      </trkpt>
      <trkpt lat="45.58469" lon="6.59808">
        <ele>2071</ele>
        <time>2023-01-29T10:36:04.810Z</time>
      </trkpt>
      <trkpt lat="45.58478" lon="6.5981">
        <ele>2072</ele>
        <time>2023-01-29T10:36:16.798Z</time>
      </trkpt>
      <trkpt lat="45.58487" lon="6.59813">
        <ele>2074</ele>
        <time>2023-01-29T10:36:27.811Z</time>
      </trkpt>
      <trkpt lat="45.58495" lon="6.5982">
        <ele>2075</ele>
        <time>2023-01-29T10:36:40.840Z</time>
      </trkpt>
      <trkpt lat="45.58503" lon="6.59827">
        <ele>2077</ele>
        <time>2023-01-29T10:36:52.815Z</time>
      </trkpt>
      <trkpt lat="45.5851" lon="6.59834">
        <ele>2079</ele>
        <time>2023-01-29T10:37:04.856Z</time>
      </trkpt>
      <trkpt lat="45.58519" lon="6.5984">
        <ele>2082</ele>
        <time>2023-01-29T10:37:18.755Z</time>
      </trkpt>
      <trkpt lat="45.58528" lon="6.59844">
        <ele>2084</ele>
        <time>2023-01-29T10:37:33.817Z</time>
      </trkpt>
      <trkpt lat="45.58537" lon="6.59849">
        <ele>2086</ele>
        <time>2023-01-29T10:37:46.740Z</time>
      </trkpt>
      <trkpt lat="45.58545" lon="6.59856">
        <ele>2088</ele>
        <time>2023-01-29T10:37:59.834Z</time>
      </trkpt>
      <trkpt lat="45.58553" lon="6.59862">
        <ele>2089</ele>
        <time>2023-01-29T10:38:15.838Z</time>
      </trkpt>
      <trkpt lat="45.58561" lon="6.59869">
        <ele>2091</ele>
        <time>2023-01-29T10:38:31.824Z</time>
      </trkpt>
      <trkpt lat="45.5857" lon="6.59874">
        <ele>2094</ele>
        <time>2023-01-29T10:38:47.842Z</time>
      </trkpt>
      <trkpt lat="45.58578" lon="6.59881">
        <ele>2097</ele>
        <time>2023-01-29T10:39:01.772Z</time>
      </trkpt>
      <trkpt lat="45.5858" lon="6.59884">
        <ele>2100</ele>
        <time>2023-01-29T10:39:17.756Z</time>
      </trkpt>
      <trkpt lat="45.5858" lon="6.59884">
        <ele>2100</ele>
        <time>2023-01-29T10:47:47.776Z</time>
      </trkpt>
      <trkpt lat="45.58598" lon="6.59903">
        <ele>2101</ele>
        <time>2023-01-29T10:47:48.771Z</time>
      </trkpt>
      <trkpt lat="45.58606" lon="6.5991">
        <ele>2103</ele>
        <time>2023-01-29T10:48:01.853Z</time>
      </trkpt>
      <trkpt lat="45.58614" lon="6.59917">
        <ele>2104</ele>
        <time>2023-01-29T10:48:14.811Z</time>
      </trkpt>
      <trkpt lat="45.58621" lon="6.59927">
        <ele>2105</ele>
        <time>2023-01-29T10:48:28.837Z</time>
      </trkpt>
      <trkpt lat="45.58629" lon="6.59934">
        <ele>2107</ele>
        <time>2023-01-29T10:48:42.826Z</time>
      </trkpt>
      <trkpt lat="45.58634" lon="6.59946">
        <ele>2109</ele>
        <time>2023-01-29T10:48:58.824Z</time>
      </trkpt>
      <trkpt lat="45.58638" lon="6.59958">
        <ele>2112</ele>
        <time>2023-01-29T10:49:17.822Z</time>
      </trkpt>
      <trkpt lat="45.58642" lon="6.5997">
        <ele>2114</ele>
        <time>2023-01-29T10:49:27.751Z</time>
      </trkpt>
      <trkpt lat="45.58646" lon="6.59982">
        <ele>2117</ele>
        <time>2023-01-29T10:49:41.832Z</time>
      </trkpt>
      <trkpt lat="45.58651" lon="6.59993">
        <ele>2121</ele>
        <time>2023-01-29T10:49:55.817Z</time>
      </trkpt>
      <trkpt lat="45.58658" lon="6.60002">
        <ele>2124</ele>
        <time>2023-01-29T10:50:09.834Z</time>
      </trkpt>
      <trkpt lat="45.5866" lon="6.60007">
        <ele>2126</ele>
        <time>2023-01-29T10:50:26.824Z</time>
      </trkpt>
      <trkpt lat="45.5866" lon="6.60007">
        <ele>2126</ele>
        <time>2023-01-29T10:51:09.755Z</time>
      </trkpt>
      <trkpt lat="45.58678" lon="6.60027">
        <ele>2127</ele>
        <time>2023-01-29T10:51:10.761Z</time>
      </trkpt>
      <trkpt lat="45.58679" lon="6.60026">
        <ele>2127</ele>
        <time>2023-01-29T10:51:21.847Z</time>
      </trkpt>
      <trkpt lat="45.58679" lon="6.60026">
        <ele>2127</ele>
        <time>2023-01-29T10:52:07.810Z</time>
      </trkpt>
      <trkpt lat="45.58697" lon="6.60045">
        <ele>2130</ele>
        <time>2023-01-29T10:52:08.835Z</time>
      </trkpt>
      <trkpt lat="45.58704" lon="6.60055">
        <ele>2133</ele>
        <time>2023-01-29T10:52:23.829Z</time>
      </trkpt>
      <trkpt lat="45.5871" lon="6.60065">
        <ele>2137</ele>
        <time>2023-01-29T10:52:39.852Z</time>
      </trkpt>
      <trkpt lat="45.58714" lon="6.60072">
        <ele>2140</ele>
        <time>2023-01-29T10:53:01.829Z</time>
      </trkpt>
      <trkpt lat="45.58714" lon="6.60072">
        <ele>2140</ele>
        <time>2023-01-29T10:54:02.775Z</time>
      </trkpt>
      <trkpt lat="45.58734" lon="6.60089">
        <ele>2146</ele>
        <time>2023-01-29T10:54:03.756Z</time>
      </trkpt>
      <trkpt lat="45.5874" lon="6.60099">
        <ele>2149</ele>
        <time>2023-01-29T10:54:22.862Z</time>
      </trkpt>
      <trkpt lat="45.58742" lon="6.60107">
        <ele>2152</ele>
        <time>2023-01-29T10:54:42.842Z</time>
      </trkpt>
      <trkpt lat="45.58742" lon="6.60107">
        <ele>2152</ele>
        <time>2023-01-29T10:55:33.829Z</time>
      </trkpt>
      <trkpt lat="45.58761" lon="6.60125">
        <ele>2155</ele>
        <time>2023-01-29T10:55:34.841Z</time>
      </trkpt>
      <trkpt lat="45.58765" lon="6.60135">
        <ele>2158</ele>
        <time>2023-01-29T10:56:00.845Z</time>
      </trkpt>
      <trkpt lat="45.58765" lon="6.60135">
        <ele>2158</ele>
        <time>2023-01-29T10:56:42.822Z</time>
      </trkpt>
      <trkpt lat="45.58781" lon="6.60158">
        <ele>2162</ele>
        <time>2023-01-29T10:56:43.829Z</time>
      </trkpt>
      <trkpt lat="45.58788" lon="6.60167">
        <ele>2163</ele>
        <time>2023-01-29T10:56:59.820Z</time>
      </trkpt>
      <trkpt lat="45.58795" lon="6.60175">
        <ele>2163</ele>
        <time>2023-01-29T10:57:10.836Z</time>
      </trkpt>
      <trkpt lat="45.58796" lon="6.60179">
        <ele>2165</ele>
        <time>2023-01-29T10:57:25.756Z</time>
      </trkpt>
      <trkpt lat="45.58796" lon="6.60179">
        <ele>2165</ele>
        <time>2023-01-29T11:05:46.789Z</time>
      </trkpt>
      <trkpt lat="45.58812" lon="6.60203">
        <ele>2172</ele>
        <time>2023-01-29T11:05:47.748Z</time>
      </trkpt>
      <trkpt lat="45.58819" lon="6.60212">
        <ele>2176</ele>
        <time>2023-01-29T11:06:04.820Z</time>
      </trkpt>
      <trkpt lat="45.58825" lon="6.60222">
        <ele>2178</ele>
        <time>2023-01-29T11:06:15.849Z</time>
      </trkpt>
      <trkpt lat="45.58833" lon="6.6023">
        <ele>2180</ele>
        <time>2023-01-29T11:06:30.811Z</time>
      </trkpt>
      <trkpt lat="45.58839" lon="6.6024">
        <ele>2181</ele>
        <time>2023-01-29T11:06:45.830Z</time>
      </trkpt>
      <trkpt lat="45.58846" lon="6.60247">
        <ele>2182</ele>
        <time>2023-01-29T11:06:58.771Z</time>
      </trkpt>
      <trkpt lat="45.58853" lon="6.60257">
        <ele>2184</ele>
        <time>2023-01-29T11:07:17.839Z</time>
      </trkpt>
      <trkpt lat="45.58856" lon="6.60263">
        <ele>2186</ele>
        <time>2023-01-29T11:07:35.821Z</time>
      </trkpt>
      <trkpt lat="45.58856" lon="6.60263">
        <ele>2186</ele>
        <time>2023-01-29T11:08:49.835Z</time>
      </trkpt>
      <trkpt lat="45.58873" lon="6.60285">
        <ele>2191</ele>
        <time>2023-01-29T11:08:50.825Z</time>
      </trkpt>
      <trkpt lat="45.5888" lon="6.60293">
        <ele>2193</ele>
        <time>2023-01-29T11:09:03.842Z</time>
      </trkpt>
      <trkpt lat="45.58887" lon="6.60302">
        <ele>2195</ele>
        <time>2023-01-29T11:09:19.839Z</time>
      </trkpt>
      <trkpt lat="45.5889" lon="6.60306">
        <ele>2196</ele>
        <time>2023-01-29T11:09:37.835Z</time>
      </trkpt>
      <trkpt lat="45.5889" lon="6.60306">
        <ele>2196</ele>
        <time>2023-01-29T11:10:24.821Z</time>
      </trkpt>
      <trkpt lat="45.5891" lon="6.60325">
        <ele>2199</ele>
        <time>2023-01-29T11:10:25.847Z</time>
      </trkpt>
      <trkpt lat="45.58918" lon="6.60333">
        <ele>2202</ele>
        <time>2023-01-29T11:10:41.854Z</time>
      </trkpt>
      <trkpt lat="45.58921" lon="6.60333">
        <ele>2203</ele>
        <time>2023-01-29T11:10:58.836Z</time>
      </trkpt>
      <trkpt lat="45.58921" lon="6.60333">
        <ele>2203</ele>
        <time>2023-01-29T11:14:50.808Z</time>
      </trkpt>
      <trkpt lat="45.5894" lon="6.60352">
        <ele>2206</ele>
        <time>2023-01-29T11:14:51.840Z</time>
      </trkpt>
      <trkpt lat="45.58946" lon="6.60362">
        <ele>2210</ele>
        <time>2023-01-29T11:15:08.837Z</time>
      </trkpt>
      <trkpt lat="45.58949" lon="6.60375">
        <ele>2215</ele>
        <time>2023-01-29T11:15:25.823Z</time>
      </trkpt>
      <trkpt lat="45.58957" lon="6.60382">
        <ele>2220</ele>
        <time>2023-01-29T11:15:43.814Z</time>
      </trkpt>
      <trkpt lat="45.5896" lon="6.60384">
        <ele>2226</ele>
        <time>2023-01-29T11:15:59.841Z</time>
      </trkpt>
      <trkpt lat="45.5896" lon="6.60384">
        <ele>2226</ele>
        <time>2023-01-29T11:19:07.837Z</time>
      </trkpt>
      <trkpt lat="45.58972" lon="6.60412">
        <ele>2227</ele>
        <time>2023-01-29T11:19:08.844Z</time>
      </trkpt>
      <trkpt lat="45.58975" lon="6.60424">
        <ele>2227</ele>
        <time>2023-01-29T11:19:18.830Z</time>
      </trkpt>
      <trkpt lat="45.58978" lon="6.60437">
        <ele>2228</ele>
        <time>2023-01-29T11:19:32.860Z</time>
      </trkpt>
      <trkpt lat="45.58985" lon="6.60447">
        <ele>2230</ele>
        <time>2023-01-29T11:19:43.835Z</time>
      </trkpt>
      <trkpt lat="45.58994" lon="6.60454">
        <ele>2232</ele>
        <time>2023-01-29T11:19:58.834Z</time>
      </trkpt>
      <trkpt lat="45.58998" lon="6.60466">
        <ele>2234</ele>
        <time>2023-01-29T11:20:10.841Z</time>
      </trkpt>
      <trkpt lat="45.59005" lon="6.60475">
        <ele>2235</ele>
        <time>2023-01-29T11:20:19.836Z</time>
      </trkpt>
      <trkpt lat="45.59009" lon="6.60487">
        <ele>2236</ele>
        <time>2023-01-29T11:20:29.825Z</time>
      </trkpt>
      <trkpt lat="45.59014" lon="6.60499">
        <ele>2237</ele>
        <time>2023-01-29T11:20:40.838Z</time>
      </trkpt>
      <trkpt lat="45.59018" lon="6.60511">
        <ele>2239</ele>
        <time>2023-01-29T11:20:50.791Z</time>
      </trkpt>
      <trkpt lat="45.59025" lon="6.6052">
        <ele>2241</ele>
        <time>2023-01-29T11:21:02.841Z</time>
      </trkpt>
      <trkpt lat="45.59034" lon="6.60526">
        <ele>2242</ele>
        <time>2023-01-29T11:21:11.825Z</time>
      </trkpt>
      <trkpt lat="45.59039" lon="6.60534">
        <ele>2246</ele>
        <time>2023-01-29T11:21:36.830Z</time>
      </trkpt>
      <trkpt lat="45.59039" lon="6.60534">
        <ele>2246</ele>
        <time>2023-01-29T11:22:20.771Z</time>
      </trkpt>
      <trkpt lat="45.59032" lon="6.60567">
        <ele>2248</ele>
        <time>2023-01-29T11:22:21.780Z</time>
      </trkpt>
      <trkpt lat="45.59034" lon="6.60581">
        <ele>2249</ele>
        <time>2023-01-29T11:22:27.792Z</time>
      </trkpt>
      <trkpt lat="45.59034" lon="6.60594">
        <ele>2250</ele>
        <time>2023-01-29T11:22:38.772Z</time>
      </trkpt>
      <trkpt lat="45.59038" lon="6.60606">
        <ele>2252</ele>
        <time>2023-01-29T11:22:55.783Z</time>
      </trkpt>
      <trkpt lat="45.59042" lon="6.60618">
        <ele>2253</ele>
        <time>2023-01-29T11:23:07.822Z</time>
      </trkpt>
      <trkpt lat="45.59042" lon="6.60631">
        <ele>2255</ele>
        <time>2023-01-29T11:23:20.830Z</time>
      </trkpt>
      <trkpt lat="45.5904" lon="6.60644">
        <ele>2257</ele>
        <time>2023-01-29T11:23:33.865Z</time>
      </trkpt>
      <trkpt lat="45.59037" lon="6.60657">
        <ele>2258</ele>
        <time>2023-01-29T11:23:45.832Z</time>
      </trkpt>
      <trkpt lat="45.59035" lon="6.60671">
        <ele>2260</ele>
        <time>2023-01-29T11:23:57.834Z</time>
      </trkpt>
      <trkpt lat="45.59029" lon="6.60681">
        <ele>2262</ele>
        <time>2023-01-29T11:24:10.844Z</time>
      </trkpt>
      <trkpt lat="45.59021" lon="6.60688">
        <ele>2263</ele>
        <time>2023-01-29T11:24:21.843Z</time>
      </trkpt>
      <trkpt lat="45.59014" lon="6.60697">
        <ele>2264</ele>
        <time>2023-01-29T11:24:32.823Z</time>
      </trkpt>
      <trkpt lat="45.59008" lon="6.60707">
        <ele>2265</ele>
        <time>2023-01-29T11:24:44.825Z</time>
      </trkpt>
      <trkpt lat="45.59004" lon="6.6072">
        <ele>2267</ele>
        <time>2023-01-29T11:24:55.823Z</time>
      </trkpt>
      <trkpt lat="45.59002" lon="6.60733">
        <ele>2268</ele>
        <time>2023-01-29T11:25:06.842Z</time>
      </trkpt>
      <trkpt lat="45.59" lon="6.60745">
        <ele>2270</ele>
        <time>2023-01-29T11:25:26.818Z</time>
      </trkpt>
      <trkpt lat="45.59" lon="6.60745">
        <ele>2270</ele>
        <time>2023-01-29T11:26:08.778Z</time>
      </trkpt>
      <trkpt lat="45.59013" lon="6.60771">
        <ele>2275</ele>
        <time>2023-01-29T11:26:09.796Z</time>
      </trkpt>
      <trkpt lat="45.59016" lon="6.60784">
        <ele>2279</ele>
        <time>2023-01-29T11:26:30.771Z</time>
      </trkpt>
      <trkpt lat="45.59022" lon="6.60795">
        <ele>2283</ele>
        <time>2023-01-29T11:26:45.776Z</time>
      </trkpt>
      <trkpt lat="45.59023" lon="6.60796">
        <ele>2287</ele>
        <time>2023-01-29T11:26:54.822Z</time>
      </trkpt>
      <trkpt lat="45.59023" lon="6.60796">
        <ele>2287</ele>
        <time>2023-01-29T11:28:13.769Z</time>
      </trkpt>
      <trkpt lat="45.59002" lon="6.60813">
        <ele>2290</ele>
        <time>2023-01-29T11:28:14.769Z</time>
      </trkpt>
      <trkpt lat="45.59007" lon="6.60824">
        <ele>2295</ele>
        <time>2023-01-29T11:29:02.743Z</time>
      </trkpt>
      <trkpt lat="45.5901" lon="6.60836">
        <ele>2299</ele>
        <time>2023-01-29T11:29:17.758Z</time>
      </trkpt>
      <trkpt lat="45.59004" lon="6.60848">
        <ele>2307</ele>
        <time>2023-01-29T11:29:42.785Z</time>
      </trkpt>
      <trkpt lat="45.59004" lon="6.60848">
        <ele>2307</ele>
        <time>2023-01-29T11:30:32.767Z</time>
      </trkpt>
      <trkpt lat="45.59011" lon="6.60879">
        <ele>2317</ele>
        <time>2023-01-29T11:30:33.786Z</time>
      </trkpt>
      <trkpt lat="45.5901" lon="6.60885">
        <ele>2321</ele>
        <time>2023-01-29T11:30:53.786Z</time>
      </trkpt>
      <trkpt lat="45.5901" lon="6.60885">
        <ele>2321</ele>
        <time>2023-01-29T11:31:36.758Z</time>
      </trkpt>
      <trkpt lat="45.58991" lon="6.60903">
        <ele>2322</ele>
        <time>2023-01-29T11:31:37.793Z</time>
      </trkpt>
      <trkpt lat="45.58987" lon="6.60908">
        <ele>2324</ele>
        <time>2023-01-29T11:31:54.809Z</time>
      </trkpt>
      <trkpt lat="45.58987" lon="6.60908">
        <ele>2324</ele>
        <time>2023-01-29T11:36:55.773Z</time>
      </trkpt>
      <trkpt lat="45.58994" lon="6.60939">
        <ele>2338</ele>
        <time>2023-01-29T11:36:56.773Z</time>
      </trkpt>
      <trkpt lat="45.58994" lon="6.60952">
        <ele>2339</ele>
        <time>2023-01-29T11:37:05.813Z</time>
      </trkpt>
      <trkpt lat="45.58993" lon="6.60965">
        <ele>2340</ele>
        <time>2023-01-29T11:37:15.775Z</time>
      </trkpt>
      <trkpt lat="45.5899" lon="6.60978">
        <ele>2342</ele>
        <time>2023-01-29T11:37:26.851Z</time>
      </trkpt>
      <trkpt lat="45.58986" lon="6.6099">
        <ele>2343</ele>
        <time>2023-01-29T11:37:37.855Z</time>
      </trkpt>
      <trkpt lat="45.58981" lon="6.61002">
        <ele>2344</ele>
        <time>2023-01-29T11:37:46.799Z</time>
      </trkpt>
      <trkpt lat="45.58975" lon="6.61012">
        <ele>2344</ele>
        <time>2023-01-29T11:37:56.819Z</time>
      </trkpt>
      <trkpt lat="45.58968" lon="6.61022">
        <ele>2345</ele>
        <time>2023-01-29T11:38:05.820Z</time>
      </trkpt>
      <trkpt lat="45.58963" lon="6.61033">
        <ele>2345</ele>
        <time>2023-01-29T11:38:16.845Z</time>
      </trkpt>
      <trkpt lat="45.58958" lon="6.61045">
        <ele>2345</ele>
        <time>2023-01-29T11:38:28.829Z</time>
      </trkpt>
      <trkpt lat="45.58953" lon="6.61056">
        <ele>2346</ele>
        <time>2023-01-29T11:38:43.862Z</time>
      </trkpt>
      <trkpt lat="45.58947" lon="6.61066">
        <ele>2348</ele>
        <time>2023-01-29T11:38:53.851Z</time>
      </trkpt>
      <trkpt lat="45.58941" lon="6.61078">
        <ele>2350</ele>
        <time>2023-01-29T11:39:11.774Z</time>
      </trkpt>
      <trkpt lat="45.58936" lon="6.61088">
        <ele>2352</ele>
        <time>2023-01-29T11:39:30.783Z</time>
      </trkpt>
      <trkpt lat="45.58935" lon="6.61101">
        <ele>2353</ele>
        <time>2023-01-29T11:39:45.841Z</time>
      </trkpt>
      <trkpt lat="45.58929" lon="6.61112">
        <ele>2358</ele>
        <time>2023-01-29T11:40:16.806Z</time>
      </trkpt>
      <trkpt lat="45.58932" lon="6.61125">
        <ele>2361</ele>
        <time>2023-01-29T11:40:40.839Z</time>
      </trkpt>
      <trkpt lat="45.58935" lon="6.61137">
        <ele>2363</ele>
        <time>2023-01-29T11:40:59.850Z</time>
      </trkpt>
      <trkpt lat="45.58934" lon="6.6114">
        <ele>2365</ele>
        <time>2023-01-29T11:41:10.814Z</time>
      </trkpt>
      <trkpt lat="45.58934" lon="6.6114">
        <ele>2365</ele>
        <time>2023-01-29T11:42:12.824Z</time>
      </trkpt>
      <trkpt lat="45.58929" lon="6.61171">
        <ele>2375</ele>
        <time>2023-01-29T11:42:13.798Z</time>
      </trkpt>
      <trkpt lat="45.58925" lon="6.61184">
        <ele>2380</ele>
        <time>2023-01-29T11:42:33.832Z</time>
      </trkpt>
      <trkpt lat="45.58918" lon="6.61192">
        <ele>2385</ele>
        <time>2023-01-29T11:42:54.823Z</time>
      </trkpt>
      <trkpt lat="45.5891" lon="6.61199">
        <ele>2387</ele>
        <time>2023-01-29T11:43:10.808Z</time>
      </trkpt>
      <trkpt lat="45.58915" lon="6.61209">
        <ele>2391</ele>
        <time>2023-01-29T11:44:01.834Z</time>
      </trkpt>
      <trkpt lat="45.58919" lon="6.61221">
        <ele>2393</ele>
        <time>2023-01-29T11:44:19.824Z</time>
      </trkpt>
      <trkpt lat="45.5892" lon="6.61222">
        <ele>2394</ele>
        <time>2023-01-29T11:44:25.811Z</time>
      </trkpt>
      <trkpt lat="45.5892" lon="6.61222">
        <ele>2394</ele>
        <time>2023-01-29T11:45:03.832Z</time>
      </trkpt>
      <trkpt lat="45.58939" lon="6.61242">
        <ele>2403</ele>
        <time>2023-01-29T11:45:04.831Z</time>
      </trkpt>
      <trkpt lat="45.58947" lon="6.61248">
        <ele>2405</ele>
        <time>2023-01-29T11:45:22.836Z</time>
      </trkpt>
      <trkpt lat="45.58952" lon="6.61248">
        <ele>2406</ele>
        <time>2023-01-29T11:45:41.825Z</time>
      </trkpt>
      <trkpt lat="45.58952" lon="6.61248">
        <ele>2406</ele>
        <time>2023-01-29T11:46:31.832Z</time>
      </trkpt>
      <trkpt lat="45.58934" lon="6.61268">
        <ele>2413</ele>
        <time>2023-01-29T11:46:32.831Z</time>
      </trkpt>
      <trkpt lat="45.58926" lon="6.61272">
        <ele>2415</ele>
        <time>2023-01-29T11:46:49.815Z</time>
      </trkpt>
      <trkpt lat="45.58918" lon="6.61277">
        <ele>2417</ele>
        <time>2023-01-29T11:47:10.834Z</time>
      </trkpt>
      <trkpt lat="45.58913" lon="6.61278">
        <ele>2418</ele>
        <time>2023-01-29T11:47:29.800Z</time>
      </trkpt>
      <trkpt lat="45.58913" lon="6.61278">
        <ele>2418</ele>
        <time>2023-01-29T11:48:39.773Z</time>
      </trkpt>
      <trkpt lat="45.58932" lon="6.61296">
        <ele>2429</ele>
        <time>2023-01-29T11:48:40.785Z</time>
      </trkpt>
      <trkpt lat="45.5894" lon="6.61302">
        <ele>2435</ele>
        <time>2023-01-29T11:49:01.800Z</time>
      </trkpt>
      <trkpt lat="45.58949" lon="6.61307">
        <ele>2438</ele>
        <time>2023-01-29T11:49:22.833Z</time>
      </trkpt>
      <trkpt lat="45.58949" lon="6.61307">
        <ele>2438</ele>
        <time>2023-01-29T11:50:06.851Z</time>
      </trkpt>
      <trkpt lat="45.5897" lon="6.61321">
        <ele>2442</ele>
        <time>2023-01-29T11:50:07.847Z</time>
      </trkpt>
      <trkpt lat="45.58974" lon="6.61333">
        <ele>2445</ele>
        <time>2023-01-29T11:50:25.747Z</time>
      </trkpt>
      <trkpt lat="45.58978" lon="6.61345">
        <ele>2448</ele>
        <time>2023-01-29T11:50:40.766Z</time>
      </trkpt>
      <trkpt lat="45.58985" lon="6.61353">
        <ele>2452</ele>
        <time>2023-01-29T11:51:00.769Z</time>
      </trkpt>
      <trkpt lat="45.58994" lon="6.61352">
        <ele>2454</ele>
        <time>2023-01-29T11:51:14.756Z</time>
      </trkpt>
      <trkpt lat="45.59003" lon="6.61355">
        <ele>2456</ele>
        <time>2023-01-29T11:51:33.818Z</time>
      </trkpt>
      <trkpt lat="45.59012" lon="6.61358">
        <ele>2458</ele>
        <time>2023-01-29T11:51:51.784Z</time>
      </trkpt>
      <trkpt lat="45.59021" lon="6.6136">
        <ele>2462</ele>
        <time>2023-01-29T11:52:12.813Z</time>
      </trkpt>
      <trkpt lat="45.5903" lon="6.61363">
        <ele>2464</ele>
        <time>2023-01-29T11:52:32.829Z</time>
      </trkpt>
      <trkpt lat="45.59034" lon="6.61375">
        <ele>2467</ele>
        <time>2023-01-29T11:52:54.807Z</time>
      </trkpt>
      <trkpt lat="45.5903" lon="6.61388">
        <ele>2472</ele>
        <time>2023-01-29T11:53:14.806Z</time>
      </trkpt>
      <trkpt lat="45.59026" lon="6.61399">
        <ele>2477</ele>
        <time>2023-01-29T11:53:34.828Z</time>
      </trkpt>
      <trkpt lat="45.59022" lon="6.61411">
        <ele>2480</ele>
        <time>2023-01-29T11:53:58.748Z</time>
      </trkpt>
      <trkpt lat="45.59022" lon="6.61411">
        <ele>2480</ele>
        <time>2023-01-29T11:53:59.764Z</time>
      </trkpt>
      <trkpt lat="45.59022" lon="6.61411">
        <ele>2480</ele>
        <time>2023-01-29T11:58:37.815Z</time>
      </trkpt>
      <trkpt lat="45.59036" lon="6.61437">
        <ele>2493</ele>
        <time>2023-01-29T11:58:38.770Z</time>
      </trkpt>
      <trkpt lat="45.59044" lon="6.61443">
        <ele>2495</ele>
        <time>2023-01-29T11:58:58.794Z</time>
      </trkpt>
      <trkpt lat="45.59049" lon="6.61444">
        <ele>2497</ele>
        <time>2023-01-29T11:59:20.788Z</time>
      </trkpt>
      <trkpt lat="45.59049" lon="6.61444">
        <ele>2497</ele>
        <time>2023-01-29T12:00:03.796Z</time>
      </trkpt>
      <trkpt lat="45.59037" lon="6.61471">
        <ele>2503</ele>
        <time>2023-01-29T12:00:04.813Z</time>
      </trkpt>
      <trkpt lat="45.59029" lon="6.61479">
        <ele>2505</ele>
        <time>2023-01-29T12:00:24.783Z</time>
      </trkpt>
      <trkpt lat="45.59024" lon="6.61489">
        <ele>2508</ele>
        <time>2023-01-29T12:00:45.809Z</time>
      </trkpt>
      <trkpt lat="45.59021" lon="6.6149">
        <ele>2510</ele>
        <time>2023-01-29T12:00:58.770Z</time>
      </trkpt>
      <trkpt lat="45.59021" lon="6.6149">
        <ele>2510</ele>
        <time>2023-01-29T12:02:06.823Z</time>
      </trkpt>
      <trkpt lat="45.59044" lon="6.61497">
        <ele>2518</ele>
        <time>2023-01-29T12:02:07.824Z</time>
      </trkpt>
      <trkpt lat="45.59053" lon="6.61499">
        <ele>2520</ele>
        <time>2023-01-29T12:02:26.824Z</time>
      </trkpt>
      <trkpt lat="45.59055" lon="6.61512">
        <ele>2523</ele>
        <time>2023-01-29T12:02:51.836Z</time>
      </trkpt>
      <trkpt lat="45.59051" lon="6.61524">
        <ele>2527</ele>
        <time>2023-01-29T12:03:07.866Z</time>
      </trkpt>
      <trkpt lat="45.59046" lon="6.61535">
        <ele>2531</ele>
        <time>2023-01-29T12:03:29.820Z</time>
      </trkpt>
      <trkpt lat="45.59042" lon="6.61545">
        <ele>2535</ele>
        <time>2023-01-29T12:03:57.843Z</time>
      </trkpt>
      <trkpt lat="45.59042" lon="6.61545">
        <ele>2535</ele>
        <time>2023-01-29T12:04:53.856Z</time>
      </trkpt>
      <trkpt lat="45.59065" lon="6.6154">
        <ele>2535</ele>
        <time>2023-01-29T12:04:54.848Z</time>
      </trkpt>
      <trkpt lat="45.59074" lon="6.61538">
        <ele>2533</ele>
        <time>2023-01-29T12:05:03.801Z</time>
      </trkpt>
      <trkpt lat="45.59083" lon="6.61534">
        <ele>2532</ele>
        <time>2023-01-29T12:05:14.842Z</time>
      </trkpt>
      <trkpt lat="45.59093" lon="6.61531">
        <ele>2530</ele>
        <time>2023-01-29T12:05:29.818Z</time>
      </trkpt>
      <trkpt lat="45.59102" lon="6.61527">
        <ele>2530</ele>
        <time>2023-01-29T12:05:39.832Z</time>
      </trkpt>
      <trkpt lat="45.59112" lon="6.61526">
        <ele>2531</ele>
        <time>2023-01-29T12:05:50.838Z</time>
      </trkpt>
      <trkpt lat="45.59121" lon="6.61524">
        <ele>2532</ele>
        <time>2023-01-29T12:06:00.839Z</time>
      </trkpt>
      <trkpt lat="45.5913" lon="6.61521">
        <ele>2534</ele>
        <time>2023-01-29T12:06:10.845Z</time>
      </trkpt>
      <trkpt lat="45.5914" lon="6.61521">
        <ele>2536</ele>
        <time>2023-01-29T12:06:22.834Z</time>
      </trkpt>
      <trkpt lat="45.59143" lon="6.6152">
        <ele>2538</ele>
        <time>2023-01-29T12:06:38.849Z</time>
      </trkpt>
      <trkpt lat="45.59143" lon="6.6152">
        <ele>2538</ele>
        <time>2023-01-29T12:09:14.846Z</time>
      </trkpt>
      <trkpt lat="45.59165" lon="6.61518">
        <ele>2540</ele>
        <time>2023-01-29T12:09:15.853Z</time>
      </trkpt>
      <trkpt lat="45.59174" lon="6.61517">
        <ele>2543</ele>
        <time>2023-01-29T12:09:32.797Z</time>
      </trkpt>
      <trkpt lat="45.59178" lon="6.61517">
        <ele>2545</ele>
        <time>2023-01-29T12:09:40.772Z</time>
      </trkpt>
      <trkpt lat="45.59178" lon="6.61517">
        <ele>2545</ele>
        <time>2023-01-29T12:11:02.844Z</time>
      </trkpt>
      <trkpt lat="45.59201" lon="6.61517">
        <ele>2559</ele>
        <time>2023-01-29T12:11:03.796Z</time>
      </trkpt>
      <trkpt lat="45.5921" lon="6.61514">
        <ele>2560</ele>
        <time>2023-01-29T12:11:26.827Z</time>
      </trkpt>
      <trkpt lat="45.59219" lon="6.6151">
        <ele>2562</ele>
        <time>2023-01-29T12:11:38.798Z</time>
      </trkpt>
      <trkpt lat="45.59227" lon="6.61508">
        <ele>2566</ele>
        <time>2023-01-29T12:12:04.814Z</time>
      </trkpt>
      <trkpt lat="45.59227" lon="6.61508">
        <ele>2566</ele>
        <time>2023-01-29T12:31:29.832Z</time>
      </trkpt>
      <trkpt lat="45.59205" lon="6.61521">
        <ele>2582</ele>
        <time>2023-01-29T12:31:30.836Z</time>
      </trkpt>
      <trkpt lat="45.59195" lon="6.61517">
        <ele>2581</ele>
        <time>2023-01-29T12:31:37.824Z</time>
      </trkpt>
      <trkpt lat="45.59186" lon="6.61521">
        <ele>2580</ele>
        <time>2023-01-29T12:31:40.848Z</time>
      </trkpt>
      <trkpt lat="45.59176" lon="6.6153">
        <ele>2579</ele>
        <time>2023-01-29T12:31:45.838Z</time>
      </trkpt>
      <trkpt lat="45.59164" lon="6.61529">
        <ele>2576</ele>
        <time>2023-01-29T12:31:51.832Z</time>
      </trkpt>
      <trkpt lat="45.59163" lon="6.61516">
        <ele>2571</ele>
        <time>2023-01-29T12:32:02.813Z</time>
      </trkpt>
      <trkpt lat="45.59158" lon="6.61504">
        <ele>2568</ele>
        <time>2023-01-29T12:32:07.858Z</time>
      </trkpt>
      <trkpt lat="45.59148" lon="6.61497">
        <ele>2566</ele>
        <time>2023-01-29T12:32:11.834Z</time>
      </trkpt>
      <trkpt lat="45.59139" lon="6.61499">
        <ele>2563</ele>
        <time>2023-01-29T12:32:15.844Z</time>
      </trkpt>
      <trkpt lat="45.59133" lon="6.61498">
        <ele>2552</ele>
        <time>2023-01-29T12:32:31.835Z</time>
      </trkpt>
      <trkpt lat="45.59133" lon="6.61498">
        <ele>2552</ele>
        <time>2023-01-29T12:32:46.852Z</time>
      </trkpt>
      <trkpt lat="45.59129" lon="6.61465">
        <ele>2543</ele>
        <time>2023-01-29T12:32:47.833Z</time>
      </trkpt>
      <trkpt lat="45.59125" lon="6.61452">
        <ele>2541</ele>
        <time>2023-01-29T12:32:50.854Z</time>
      </trkpt>
      <trkpt lat="45.59117" lon="6.61434">
        <ele>2538</ele>
        <time>2023-01-29T12:32:54.861Z</time>
      </trkpt>
      <trkpt lat="45.59103" lon="6.61424">
        <ele>2536</ele>
        <time>2023-01-29T12:32:57.863Z</time>
      </trkpt>
      <trkpt lat="45.59098" lon="6.61426">
        <ele>2520</ele>
        <time>2023-01-29T12:33:13.838Z</time>
      </trkpt>
      <trkpt lat="45.59098" lon="6.61426">
        <ele>2520</ele>
        <time>2023-01-29T12:33:23.823Z</time>
      </trkpt>
      <trkpt lat="45.59089" lon="6.61393">
        <ele>2508</ele>
        <time>2023-01-29T12:33:24.840Z</time>
      </trkpt>
      <trkpt lat="45.59088" lon="6.61377">
        <ele>2506</ele>
        <time>2023-01-29T12:33:26.791Z</time>
      </trkpt>
      <trkpt lat="45.59096" lon="6.61363">
        <ele>2502</ele>
        <time>2023-01-29T12:33:29.828Z</time>
      </trkpt>
      <trkpt lat="45.59104" lon="6.61361">
        <ele>2487</ele>
        <time>2023-01-29T12:33:45.857Z</time>
      </trkpt>
      <trkpt lat="45.59104" lon="6.61361">
        <ele>2487</ele>
        <time>2023-01-29T12:34:23.845Z</time>
      </trkpt>
      <trkpt lat="45.59093" lon="6.61328">
        <ele>2476</ele>
        <time>2023-01-29T12:34:24.861Z</time>
      </trkpt>
      <trkpt lat="45.59088" lon="6.61317">
        <ele>2476</ele>
        <time>2023-01-29T12:34:26.782Z</time>
      </trkpt>
      <trkpt lat="45.59081" lon="6.61301">
        <ele>2475</ele>
        <time>2023-01-29T12:34:32.797Z</time>
      </trkpt>
      <trkpt lat="45.5907" lon="6.6129">
        <ele>2473</ele>
        <time>2023-01-29T12:34:36.850Z</time>
      </trkpt>
      <trkpt lat="45.59064" lon="6.61267">
        <ele>2471</ele>
        <time>2023-01-29T12:34:41.840Z</time>
      </trkpt>
      <trkpt lat="45.59057" lon="6.61246">
        <ele>2469</ele>
        <time>2023-01-29T12:34:45.775Z</time>
      </trkpt>
      <trkpt lat="45.59045" lon="6.61225">
        <ele>2466</ele>
        <time>2023-01-29T12:34:49.764Z</time>
      </trkpt>
      <trkpt lat="45.59037" lon="6.61199">
        <ele>2462</ele>
        <time>2023-01-29T12:34:54.763Z</time>
      </trkpt>
      <trkpt lat="45.59031" lon="6.61198">
        <ele>2444</ele>
        <time>2023-01-29T12:35:12.826Z</time>
      </trkpt>
      <trkpt lat="45.59031" lon="6.61198">
        <ele>2444</ele>
        <time>2023-01-29T12:36:48.832Z</time>
      </trkpt>
      <trkpt lat="45.59011" lon="6.61181">
        <ele>2425</ele>
        <time>2023-01-29T12:36:49.810Z</time>
      </trkpt>
      <trkpt lat="45.59009" lon="6.61182">
        <ele>2419</ele>
        <time>2023-01-29T12:37:05.820Z</time>
      </trkpt>
      <trkpt lat="45.59009" lon="6.61182">
        <ele>2419</ele>
        <time>2023-01-29T12:37:29.771Z</time>
      </trkpt>
      <trkpt lat="45.5899" lon="6.61159">
        <ele>2411</ele>
        <time>2023-01-29T12:37:30.766Z</time>
      </trkpt>
      <trkpt lat="45.5898" lon="6.61149">
        <ele>2410</ele>
        <time>2023-01-29T12:37:33.759Z</time>
      </trkpt>
      <trkpt lat="45.58977" lon="6.61134">
        <ele>2409</ele>
        <time>2023-01-29T12:37:36.753Z</time>
      </trkpt>
      <trkpt lat="45.58967" lon="6.61117">
        <ele>2407</ele>
        <time>2023-01-29T12:37:40.809Z</time>
      </trkpt>
      <trkpt lat="45.58956" lon="6.61094">
        <ele>2405</ele>
        <time>2023-01-29T12:37:44.819Z</time>
      </trkpt>
      <trkpt lat="45.58946" lon="6.61069">
        <ele>2402</ele>
        <time>2023-01-29T12:37:47.842Z</time>
      </trkpt>
      <trkpt lat="45.58957" lon="6.61037">
        <ele>2398</ele>
        <time>2023-01-29T12:37:51.833Z</time>
      </trkpt>
      <trkpt lat="45.58977" lon="6.60999">
        <ele>2394</ele>
        <time>2023-01-29T12:37:55.764Z</time>
      </trkpt>
      <trkpt lat="45.58996" lon="6.60972">
        <ele>2384</ele>
        <time>2023-01-29T12:38:02.838Z</time>
      </trkpt>
      <trkpt lat="45.59001" lon="6.60952">
        <ele>2376</ele>
        <time>2023-01-29T12:38:08.816Z</time>
      </trkpt>
      <trkpt lat="45.59007" lon="6.6094">
        <ele>2368</ele>
        <time>2023-01-29T12:38:13.769Z</time>
      </trkpt>
      <trkpt lat="45.59009" lon="6.60934">
        <ele>2349</ele>
        <time>2023-01-29T12:38:29.786Z</time>
      </trkpt>
      <trkpt lat="45.59009" lon="6.60934">
        <ele>2349</ele>
        <time>2023-01-29T12:39:10.793Z</time>
      </trkpt>
      <trkpt lat="45.58999" lon="6.60902">
        <ele>2339</ele>
        <time>2023-01-29T12:39:11.790Z</time>
      </trkpt>
      <trkpt lat="45.59009" lon="6.609">
        <ele>2338</ele>
        <time>2023-01-29T12:39:15.779Z</time>
      </trkpt>
      <trkpt lat="45.59011" lon="6.60884">
        <ele>2337</ele>
        <time>2023-01-29T12:39:18.787Z</time>
      </trkpt>
      <trkpt lat="45.59004" lon="6.60868">
        <ele>2337</ele>
        <time>2023-01-29T12:39:21.773Z</time>
      </trkpt>
      <trkpt lat="45.59007" lon="6.60845">
        <ele>2335</ele>
        <time>2023-01-29T12:39:25.791Z</time>
      </trkpt>
      <trkpt lat="45.59" lon="6.60833">
        <ele>2330</ele>
        <time>2023-01-29T12:39:34.773Z</time>
      </trkpt>
      <trkpt lat="45.59" lon="6.60833">
        <ele>2326</ele>
        <time>2023-01-29T12:39:41.786Z</time>
      </trkpt>
      <trkpt lat="45.59" lon="6.60833">
        <ele>2326</ele>
        <time>2023-01-29T12:45:03.834Z</time>
      </trkpt>
      <trkpt lat="45.58989" lon="6.608">
        <ele>2307</ele>
        <time>2023-01-29T12:45:04.831Z</time>
      </trkpt>
      <trkpt lat="45.58989" lon="6.60783">
        <ele>2306</ele>
        <time>2023-01-29T12:45:08.837Z</time>
      </trkpt>
      <trkpt lat="45.58991" lon="6.60767">
        <ele>2305</ele>
        <time>2023-01-29T12:45:11.855Z</time>
      </trkpt>
      <trkpt lat="45.58994" lon="6.60748">
        <ele>2304</ele>
        <time>2023-01-29T12:45:14.785Z</time>
      </trkpt>
      <trkpt lat="45.58983" lon="6.60724">
        <ele>2302</ele>
        <time>2023-01-29T12:45:17.759Z</time>
      </trkpt>
      <trkpt lat="45.58981" lon="6.60688">
        <ele>2299</ele>
        <time>2023-01-29T12:45:22.791Z</time>
      </trkpt>
      <trkpt lat="45.58972" lon="6.6066">
        <ele>2294</ele>
        <time>2023-01-29T12:45:28.751Z</time>
      </trkpt>
      <trkpt lat="45.5897" lon="6.6066">
        <ele>2283</ele>
        <time>2023-01-29T12:45:42.834Z</time>
      </trkpt>
      <trkpt lat="45.5897" lon="6.6066">
        <ele>2283</ele>
        <time>2023-01-29T12:45:53.803Z</time>
      </trkpt>
      <trkpt lat="45.5895" lon="6.60637">
        <ele>2274</ele>
        <time>2023-01-29T12:45:54.813Z</time>
      </trkpt>
      <trkpt lat="45.5894" lon="6.60631">
        <ele>2272</ele>
        <time>2023-01-29T12:45:57.798Z</time>
      </trkpt>
      <trkpt lat="45.58927" lon="6.60623">
        <ele>2269</ele>
        <time>2023-01-29T12:46:01.773Z</time>
      </trkpt>
      <trkpt lat="45.58929" lon="6.606">
        <ele>2268</ele>
        <time>2023-01-29T12:46:04.773Z</time>
      </trkpt>
      <trkpt lat="45.58913" lon="6.60585">
        <ele>2266</ele>
        <time>2023-01-29T12:46:07.813Z</time>
      </trkpt>
      <trkpt lat="45.58891" lon="6.60564">
        <ele>2263</ele>
        <time>2023-01-29T12:46:11.821Z</time>
      </trkpt>
      <trkpt lat="45.58865" lon="6.60551">
        <ele>2257</ele>
        <time>2023-01-29T12:46:18.825Z</time>
      </trkpt>
      <trkpt lat="45.58846" lon="6.60547">
        <ele>2251</ele>
        <time>2023-01-29T12:46:24.806Z</time>
      </trkpt>
      <trkpt lat="45.58834" lon="6.60543">
        <ele>2247</ele>
        <time>2023-01-29T12:46:28.767Z</time>
      </trkpt>
      <trkpt lat="45.58825" lon="6.60528">
        <ele>2243</ele>
        <time>2023-01-29T12:46:32.788Z</time>
      </trkpt>
      <trkpt lat="45.58809" lon="6.60517">
        <ele>2240</ele>
        <time>2023-01-29T12:46:35.787Z</time>
      </trkpt>
      <trkpt lat="45.58796" lon="6.60502">
        <ele>2235</ele>
        <time>2023-01-29T12:46:39.821Z</time>
      </trkpt>
      <trkpt lat="45.58801" lon="6.60475">
        <ele>2228</ele>
        <time>2023-01-29T12:46:46.777Z</time>
      </trkpt>
      <trkpt lat="45.58802" lon="6.6045">
        <ele>2223</ele>
        <time>2023-01-29T12:46:51.792Z</time>
      </trkpt>
      <trkpt lat="45.5879" lon="6.60434">
        <ele>2220</ele>
        <time>2023-01-29T12:46:54.806Z</time>
      </trkpt>
      <trkpt lat="45.58775" lon="6.60415">
        <ele>2218</ele>
        <time>2023-01-29T12:46:57.802Z</time>
      </trkpt>
      <trkpt lat="45.58761" lon="6.60385">
        <ele>2214</ele>
        <time>2023-01-29T12:47:01.778Z</time>
      </trkpt>
      <trkpt lat="45.58772" lon="6.60357">
        <ele>2207</ele>
        <time>2023-01-29T12:47:09.783Z</time>
      </trkpt>
      <trkpt lat="45.58767" lon="6.60337">
        <ele>2203</ele>
        <time>2023-01-29T12:47:13.782Z</time>
      </trkpt>
      <trkpt lat="45.58755" lon="6.6033">
        <ele>2200</ele>
        <time>2023-01-29T12:47:16.780Z</time>
      </trkpt>
      <trkpt lat="45.58742" lon="6.60322">
        <ele>2197</ele>
        <time>2023-01-29T12:47:19.778Z</time>
      </trkpt>
      <trkpt lat="45.58728" lon="6.60299">
        <ele>2192</ele>
        <time>2023-01-29T12:47:25.782Z</time>
      </trkpt>
      <trkpt lat="45.58715" lon="6.60287">
        <ele>2184</ele>
        <time>2023-01-29T12:47:32.790Z</time>
      </trkpt>
      <trkpt lat="45.58715" lon="6.60287">
        <ele>2175</ele>
        <time>2023-01-29T12:47:42.773Z</time>
      </trkpt>
      <trkpt lat="45.58715" lon="6.60287">
        <ele>2175</ele>
        <time>2023-01-29T12:48:04.777Z</time>
      </trkpt>
      <trkpt lat="45.58697" lon="6.60262">
        <ele>2161</ele>
        <time>2023-01-29T12:48:05.763Z</time>
      </trkpt>
      <trkpt lat="45.58691" lon="6.60247">
        <ele>2159</ele>
        <time>2023-01-29T12:48:08.785Z</time>
      </trkpt>
      <trkpt lat="45.58686" lon="6.60235">
        <ele>2158</ele>
        <time>2023-01-29T12:48:10.794Z</time>
      </trkpt>
      <trkpt lat="45.58675" lon="6.60224">
        <ele>2157</ele>
        <time>2023-01-29T12:48:13.757Z</time>
      </trkpt>
      <trkpt lat="45.58673" lon="6.60204">
        <ele>2155</ele>
        <time>2023-01-29T12:48:20.790Z</time>
      </trkpt>
      <trkpt lat="45.5867" lon="6.60202">
        <ele>2150</ele>
        <time>2023-01-29T12:48:35.778Z</time>
      </trkpt>
      <trkpt lat="45.5867" lon="6.60202">
        <ele>2150</ele>
        <time>2023-01-29T12:57:10.778Z</time>
      </trkpt>
      <trkpt lat="45.58647" lon="6.60195">
        <ele>2139</ele>
        <time>2023-01-29T12:57:11.786Z</time>
      </trkpt>
      <trkpt lat="45.58639" lon="6.60191">
        <ele>2139</ele>
        <time>2023-01-29T12:57:13.745Z</time>
      </trkpt>
      <trkpt lat="45.58628" lon="6.60184">
        <ele>2139</ele>
        <time>2023-01-29T12:57:15.817Z</time>
      </trkpt>
      <trkpt lat="45.5862" lon="6.60168">
        <ele>2139</ele>
        <time>2023-01-29T12:57:17.772Z</time>
      </trkpt>
      <trkpt lat="45.58605" lon="6.60147">
        <ele>2138</ele>
        <time>2023-01-29T12:57:21.768Z</time>
      </trkpt>
      <trkpt lat="45.58584" lon="6.60129">
        <ele>2137</ele>
        <time>2023-01-29T12:57:25.780Z</time>
      </trkpt>
      <trkpt lat="45.58561" lon="6.60106">
        <ele>2135</ele>
        <time>2023-01-29T12:57:29.757Z</time>
      </trkpt>
      <trkpt lat="45.58538" lon="6.60079">
        <ele>2133</ele>
        <time>2023-01-29T12:57:33.768Z</time>
      </trkpt>
      <trkpt lat="45.58513" lon="6.60044">
        <ele>2130</ele>
        <time>2023-01-29T12:57:38.762Z</time>
      </trkpt>
      <trkpt lat="45.58489" lon="6.60012">
        <ele>2125</ele>
        <time>2023-01-29T12:57:44.769Z</time>
      </trkpt>
      <trkpt lat="45.58493" lon="6.5998">
        <ele>2118</ele>
        <time>2023-01-29T12:57:51.771Z</time>
      </trkpt>
      <trkpt lat="45.58502" lon="6.59965">
        <ele>2112</ele>
        <time>2023-01-29T12:57:57.771Z</time>
      </trkpt>
      <trkpt lat="45.58512" lon="6.59957">
        <ele>2098</ele>
        <time>2023-01-29T12:58:12.780Z</time>
      </trkpt>
      <trkpt lat="45.5852" lon="6.59951">
        <ele>2096</ele>
        <time>2023-01-29T12:58:16.783Z</time>
      </trkpt>
      <trkpt lat="45.58523" lon="6.59938">
        <ele>2093</ele>
        <time>2023-01-29T12:58:20.819Z</time>
      </trkpt>
      <trkpt lat="45.58517" lon="6.59928">
        <ele>2092</ele>
        <time>2023-01-29T12:58:24.798Z</time>
      </trkpt>
      <trkpt lat="45.5851" lon="6.59916">
        <ele>2090</ele>
        <time>2023-01-29T12:58:27.788Z</time>
      </trkpt>
      <trkpt lat="45.58501" lon="6.59902">
        <ele>2089</ele>
        <time>2023-01-29T12:58:30.764Z</time>
      </trkpt>
      <trkpt lat="45.58489" lon="6.59888">
        <ele>2088</ele>
        <time>2023-01-29T12:58:34.739Z</time>
      </trkpt>
      <trkpt lat="45.58478" lon="6.59871">
        <ele>2087</ele>
        <time>2023-01-29T12:58:39.784Z</time>
      </trkpt>
      <trkpt lat="45.58465" lon="6.59854">
        <ele>2086</ele>
        <time>2023-01-29T12:58:43.774Z</time>
      </trkpt>
      <trkpt lat="45.58456" lon="6.59831">
        <ele>2085</ele>
        <time>2023-01-29T12:58:47.772Z</time>
      </trkpt>
      <trkpt lat="45.58442" lon="6.59814">
        <ele>2083</ele>
        <time>2023-01-29T12:58:50.777Z</time>
      </trkpt>
      <trkpt lat="45.58422" lon="6.59796">
        <ele>2082</ele>
        <time>2023-01-29T12:58:54.779Z</time>
      </trkpt>
      <trkpt lat="45.58406" lon="6.59793">
        <ele>2078</ele>
        <time>2023-01-29T12:59:04.748Z</time>
      </trkpt>
      <trkpt lat="45.58397" lon="6.59784">
        <ele>2073</ele>
        <time>2023-01-29T12:59:18.772Z</time>
      </trkpt>
      <trkpt lat="45.58388" lon="6.59782">
        <ele>2069</ele>
        <time>2023-01-29T12:59:31.751Z</time>
      </trkpt>
      <trkpt lat="45.58376" lon="6.59785">
        <ele>2068</ele>
        <time>2023-01-29T12:59:34.767Z</time>
      </trkpt>
      <trkpt lat="45.58368" lon="6.59791">
        <ele>2067</ele>
        <time>2023-01-29T12:59:38.765Z</time>
      </trkpt>
      <trkpt lat="45.5836" lon="6.59796">
        <ele>2060</ele>
        <time>2023-01-29T12:59:55.748Z</time>
      </trkpt>
      <trkpt lat="45.5836" lon="6.59796">
        <ele>2060</ele>
        <time>2023-01-29T13:00:02.773Z</time>
      </trkpt>
      <trkpt lat="45.58339" lon="6.59782">
        <ele>2057</ele>
        <time>2023-01-29T13:00:03.763Z</time>
      </trkpt>
      <trkpt lat="45.58331" lon="6.59767">
        <ele>2055</ele>
        <time>2023-01-29T13:00:08.743Z</time>
      </trkpt>
      <trkpt lat="45.58324" lon="6.59746">
        <ele>2053</ele>
        <time>2023-01-29T13:00:11.788Z</time>
      </trkpt>
      <trkpt lat="45.58306" lon="6.59732">
        <ele>2051</ele>
        <time>2023-01-29T13:00:17.777Z</time>
      </trkpt>
      <trkpt lat="45.5829" lon="6.59712">
        <ele>2049</ele>
        <time>2023-01-29T13:00:21.779Z</time>
      </trkpt>
      <trkpt lat="45.58272" lon="6.59697">
        <ele>2047</ele>
        <time>2023-01-29T13:00:25.789Z</time>
      </trkpt>
      <trkpt lat="45.58254" lon="6.59688">
        <ele>2044</ele>
        <time>2023-01-29T13:00:31.758Z</time>
      </trkpt>
      <trkpt lat="45.58239" lon="6.59678">
        <ele>2041</ele>
        <time>2023-01-29T13:00:37.792Z</time>
      </trkpt>
      <trkpt lat="45.58229" lon="6.59669">
        <ele>2039</ele>
        <time>2023-01-29T13:00:41.761Z</time>
      </trkpt>
      <trkpt lat="45.58219" lon="6.59658">
        <ele>2032</ele>
        <time>2023-01-29T13:00:55.778Z</time>
      </trkpt>
      <trkpt lat="45.58218" lon="6.59648">
        <ele>2024</ele>
        <time>2023-01-29T13:01:12.784Z</time>
      </trkpt>
      <trkpt lat="45.58218" lon="6.59648">
        <ele>2024</ele>
        <time>2023-01-29T13:01:31.773Z</time>
      </trkpt>
      <trkpt lat="45.58222" lon="6.59614">
        <ele>2020</ele>
        <time>2023-01-29T13:01:32.790Z</time>
      </trkpt>
      <trkpt lat="45.58226" lon="6.59601">
        <ele>2019</ele>
        <time>2023-01-29T13:01:36.791Z</time>
      </trkpt>
      <trkpt lat="45.58231" lon="6.59589">
        <ele>2018</ele>
        <time>2023-01-29T13:01:40.778Z</time>
      </trkpt>
      <trkpt lat="45.58235" lon="6.59575">
        <ele>2017</ele>
        <time>2023-01-29T13:01:43.779Z</time>
      </trkpt>
      <trkpt lat="45.5824" lon="6.59558">
        <ele>2016</ele>
        <time>2023-01-29T13:01:46.766Z</time>
      </trkpt>
      <trkpt lat="45.58244" lon="6.5954">
        <ele>2015</ele>
        <time>2023-01-29T13:01:51.802Z</time>
      </trkpt>
      <trkpt lat="45.58246" lon="6.59524">
        <ele>2014</ele>
        <time>2023-01-29T13:01:55.775Z</time>
      </trkpt>
      <trkpt lat="45.58249" lon="6.59506">
        <ele>2013</ele>
        <time>2023-01-29T13:01:59.784Z</time>
      </trkpt>
      <trkpt lat="45.58251" lon="6.5949">
        <ele>2012</ele>
        <time>2023-01-29T13:02:02.818Z</time>
      </trkpt>
      <trkpt lat="45.58253" lon="6.5947">
        <ele>2010</ele>
        <time>2023-01-29T13:02:06.781Z</time>
      </trkpt>
      <trkpt lat="45.58246" lon="6.59457">
        <ele>2008</ele>
        <time>2023-01-29T13:02:12.785Z</time>
      </trkpt>
      <trkpt lat="45.58238" lon="6.59448">
        <ele>2006</ele>
        <time>2023-01-29T13:02:17.778Z</time>
      </trkpt>
      <trkpt lat="45.5823" lon="6.59455">
        <ele>2005</ele>
        <time>2023-01-29T13:02:19.777Z</time>
      </trkpt>
      <trkpt lat="45.58215" lon="6.59466">
        <ele>2002</ele>
        <time>2023-01-29T13:02:25.811Z</time>
      </trkpt>
      <trkpt lat="45.58205" lon="6.59481">
        <ele>1998</ele>
        <time>2023-01-29T13:02:31.821Z</time>
      </trkpt>
      <trkpt lat="45.58201" lon="6.59494">
        <ele>1994</ele>
        <time>2023-01-29T13:02:36.784Z</time>
      </trkpt>
      <trkpt lat="45.58197" lon="6.59509">
        <ele>1992</ele>
        <time>2023-01-29T13:02:39.799Z</time>
      </trkpt>
      <trkpt lat="45.58189" lon="6.59517">
        <ele>1989</ele>
        <time>2023-01-29T13:02:42.771Z</time>
      </trkpt>
      <trkpt lat="45.58179" lon="6.59529">
        <ele>1986</ele>
        <time>2023-01-29T13:02:45.769Z</time>
      </trkpt>
      <trkpt lat="45.5817" lon="6.5954">
        <ele>1978</ele>
        <time>2023-01-29T13:02:53.789Z</time>
      </trkpt>
      <trkpt lat="45.58164" lon="6.5953">
        <ele>1971</ele>
        <time>2023-01-29T13:03:00.798Z</time>
      </trkpt>
      <trkpt lat="45.58156" lon="6.5952">
        <ele>1963</ele>
        <time>2023-01-29T13:03:08.763Z</time>
      </trkpt>
      <trkpt lat="45.58152" lon="6.59507">
        <ele>1957</ele>
        <time>2023-01-29T13:03:17.769Z</time>
      </trkpt>
      <trkpt lat="45.58144" lon="6.59503">
        <ele>1954</ele>
        <time>2023-01-29T13:03:22.791Z</time>
      </trkpt>
      <trkpt lat="45.58135" lon="6.59511">
        <ele>1952</ele>
        <time>2023-01-29T13:03:26.803Z</time>
      </trkpt>
      <trkpt lat="45.58127" lon="6.59503">
        <ele>1950</ele>
        <time>2023-01-29T13:03:29.787Z</time>
      </trkpt>
      <trkpt lat="45.58116" lon="6.59509">
        <ele>1949</ele>
        <time>2023-01-29T13:03:32.775Z</time>
      </trkpt>
      <trkpt lat="45.58109" lon="6.59497">
        <ele>1938</ele>
        <time>2023-01-29T13:03:48.774Z</time>
      </trkpt>
      <trkpt lat="45.58099" lon="6.59498">
        <ele>1933</ele>
        <time>2023-01-29T13:03:56.785Z</time>
      </trkpt>
      <trkpt lat="45.58094" lon="6.59513">
        <ele>1932</ele>
        <time>2023-01-29T13:03:58.769Z</time>
      </trkpt>
      <trkpt lat="45.58091" lon="6.59526">
        <ele>1931</ele>
        <time>2023-01-29T13:04:00.795Z</time>
      </trkpt>
      <trkpt lat="45.58079" lon="6.59547">
        <ele>1927</ele>
        <time>2023-01-29T13:04:06.790Z</time>
      </trkpt>
      <trkpt lat="45.58064" lon="6.59567">
        <ele>1923</ele>
        <time>2023-01-29T13:04:10.787Z</time>
      </trkpt>
      <trkpt lat="45.58049" lon="6.59574">
        <ele>1918</ele>
        <time>2023-01-29T13:04:17.775Z</time>
      </trkpt>
      <trkpt lat="45.58041" lon="6.5958">
        <ele>1914</ele>
        <time>2023-01-29T13:04:25.788Z</time>
      </trkpt>
      <trkpt lat="45.58031" lon="6.59586">
        <ele>1914</ele>
        <time>2023-01-29T13:04:27.779Z</time>
      </trkpt>
      <trkpt lat="45.58021" lon="6.59596">
        <ele>1913</ele>
        <time>2023-01-29T13:04:29.783Z</time>
      </trkpt>
      <trkpt lat="45.58007" lon="6.59608">
        <ele>1910</ele>
        <time>2023-01-29T13:04:34.780Z</time>
      </trkpt>
      <trkpt lat="45.57993" lon="6.59628">
        <ele>1907</ele>
        <time>2023-01-29T13:04:39.789Z</time>
      </trkpt>
      <trkpt lat="45.57976" lon="6.59641">
        <ele>1904</ele>
        <time>2023-01-29T13:04:43.773Z</time>
      </trkpt>
      <trkpt lat="45.57968" lon="6.59665">
        <ele>1901</ele>
        <time>2023-01-29T13:04:48.810Z</time>
      </trkpt>
      <trkpt lat="45.57951" lon="6.59673">
        <ele>1898</ele>
        <time>2023-01-29T13:04:53.799Z</time>
      </trkpt>
      <trkpt lat="45.57937" lon="6.59683">
        <ele>1896</ele>
        <time>2023-01-29T13:04:56.795Z</time>
      </trkpt>
      <trkpt lat="45.5792" lon="6.59693">
        <ele>1895</ele>
        <time>2023-01-29T13:04:59.770Z</time>
      </trkpt>
      <trkpt lat="45.57899" lon="6.59705">
        <ele>1892</ele>
        <time>2023-01-29T13:05:04.766Z</time>
      </trkpt>
      <trkpt lat="45.57889" lon="6.5972">
        <ele>1886</ele>
        <time>2023-01-29T13:05:12.780Z</time>
      </trkpt>
      <trkpt lat="45.57883" lon="6.59732">
        <ele>1879</ele>
        <time>2023-01-29T13:05:22.785Z</time>
      </trkpt>
      <trkpt lat="45.57873" lon="6.5973">
        <ele>1875</ele>
        <time>2023-01-29T13:05:29.777Z</time>
      </trkpt>
      <trkpt lat="45.57867" lon="6.59741">
        <ele>1871</ele>
        <time>2023-01-29T13:05:37.775Z</time>
      </trkpt>
      <trkpt lat="45.57864" lon="6.59754">
        <ele>1868</ele>
        <time>2023-01-29T13:05:42.759Z</time>
      </trkpt>
      <trkpt lat="45.57863" lon="6.59767">
        <ele>1867</ele>
        <time>2023-01-29T13:05:45.800Z</time>
      </trkpt>
      <trkpt lat="45.57855" lon="6.59776">
        <ele>1866</ele>
        <time>2023-01-29T13:05:48.783Z</time>
      </trkpt>
      <trkpt lat="45.57843" lon="6.5977">
        <ele>1865</ele>
        <time>2023-01-29T13:05:52.767Z</time>
      </trkpt>
      <trkpt lat="45.57831" lon="6.59772">
        <ele>1864</ele>
        <time>2023-01-29T13:05:54.769Z</time>
      </trkpt>
      <trkpt lat="45.57811" lon="6.59775">
        <ele>1863</ele>
        <time>2023-01-29T13:05:57.789Z</time>
      </trkpt>
      <trkpt lat="45.57795" lon="6.59792">
        <ele>1860</ele>
        <time>2023-01-29T13:06:06.771Z</time>
      </trkpt>
      <trkpt lat="45.57788" lon="6.59805">
        <ele>1851</ele>
        <time>2023-01-29T13:06:24.753Z</time>
      </trkpt>
      <trkpt lat="45.57779" lon="6.59802">
        <ele>1850</ele>
        <time>2023-01-29T13:06:26.756Z</time>
      </trkpt>
      <trkpt lat="45.57772" lon="6.59816">
        <ele>1849</ele>
        <time>2023-01-29T13:06:29.755Z</time>
      </trkpt>
      <trkpt lat="45.57755" lon="6.59808">
        <ele>1846</ele>
        <time>2023-01-29T13:06:34.795Z</time>
      </trkpt>
      <trkpt lat="45.57745" lon="6.59814">
        <ele>1841</ele>
        <time>2023-01-29T13:06:45.803Z</time>
      </trkpt>
      <trkpt lat="45.57733" lon="6.59816">
        <ele>1840</ele>
        <time>2023-01-29T13:06:48.843Z</time>
      </trkpt>
      <trkpt lat="45.57723" lon="6.59814">
        <ele>1838</ele>
        <time>2023-01-29T13:06:51.806Z</time>
      </trkpt>
      <trkpt lat="45.5771" lon="6.59809">
        <ele>1836</ele>
        <time>2023-01-29T13:06:56.810Z</time>
      </trkpt>
      <trkpt lat="45.57695" lon="6.59814">
        <ele>1834</ele>
        <time>2023-01-29T13:07:00.836Z</time>
      </trkpt>
      <trkpt lat="45.5769" lon="6.59838">
        <ele>1831</ele>
        <time>2023-01-29T13:07:04.772Z</time>
      </trkpt>
      <trkpt lat="45.5768" lon="6.59857">
        <ele>1829</ele>
        <time>2023-01-29T13:07:08.789Z</time>
      </trkpt>
      <trkpt lat="45.57663" lon="6.59876">
        <ele>1825</ele>
        <time>2023-01-29T13:07:13.803Z</time>
      </trkpt>
      <trkpt lat="45.57646" lon="6.59886">
        <ele>1822</ele>
        <time>2023-01-29T13:07:18.799Z</time>
      </trkpt>
      <trkpt lat="45.57645" lon="6.59889">
        <ele>1811</ele>
        <time>2023-01-29T13:07:33.820Z</time>
      </trkpt>
      <trkpt lat="45.57645" lon="6.59889">
        <ele>1811</ele>
        <time>2023-01-29T13:12:12.810Z</time>
      </trkpt>
      <trkpt lat="45.57623" lon="6.59879">
        <ele>1807</ele>
        <time>2023-01-29T13:12:13.814Z</time>
      </trkpt>
      <trkpt lat="45.57616" lon="6.59869">
        <ele>1806</ele>
        <time>2023-01-29T13:12:22.861Z</time>
      </trkpt>
      <trkpt lat="45.57608" lon="6.59877">
        <ele>1805</ele>
        <time>2023-01-29T13:12:30.790Z</time>
      </trkpt>
      <trkpt lat="45.57604" lon="6.5989">
        <ele>1804</ele>
        <time>2023-01-29T13:12:33.833Z</time>
      </trkpt>
      <trkpt lat="45.57598" lon="6.59904">
        <ele>1803</ele>
        <time>2023-01-29T13:12:36.769Z</time>
      </trkpt>
      <trkpt lat="45.5759" lon="6.59918">
        <ele>1801</ele>
        <time>2023-01-29T13:12:40.803Z</time>
      </trkpt>
      <trkpt lat="45.57589" lon="6.5992">
        <ele>1794</ele>
        <time>2023-01-29T13:12:54.791Z</time>
      </trkpt>
      <trkpt lat="45.57589" lon="6.5992">
        <ele>1794</ele>
        <time>2023-01-29T13:13:13.822Z</time>
      </trkpt>
      <trkpt lat="45.5757" lon="6.59944">
        <ele>1784</ele>
        <time>2023-01-29T13:13:14.830Z</time>
      </trkpt>
      <trkpt lat="45.57565" lon="6.59955">
        <ele>1783</ele>
        <time>2023-01-29T13:13:16.809Z</time>
      </trkpt>
      <trkpt lat="45.57558" lon="6.59969">
        <ele>1782</ele>
        <time>2023-01-29T13:13:18.791Z</time>
      </trkpt>
      <trkpt lat="45.57546" lon="6.59989">
        <ele>1781</ele>
        <time>2023-01-29T13:13:21.777Z</time>
      </trkpt>
      <trkpt lat="45.57523" lon="6.60006">
        <ele>1779</ele>
        <time>2023-01-29T13:13:25.819Z</time>
      </trkpt>
      <trkpt lat="45.57493" lon="6.60026">
        <ele>1777</ele>
        <time>2023-01-29T13:13:30.815Z</time>
      </trkpt>
      <trkpt lat="45.57462" lon="6.60034">
        <ele>1775</ele>
        <time>2023-01-29T13:13:34.841Z</time>
      </trkpt>
      <trkpt lat="45.57429" lon="6.60049">
        <ele>1773</ele>
        <time>2023-01-29T13:13:38.827Z</time>
      </trkpt>
      <trkpt lat="45.5739" lon="6.60077">
        <ele>1769</ele>
        <time>2023-01-29T13:13:43.736Z</time>
      </trkpt>
      <trkpt lat="45.57348" lon="6.60104">
        <ele>1766</ele>
        <time>2023-01-29T13:13:48.795Z</time>
      </trkpt>
      <trkpt lat="45.57316" lon="6.60145">
        <ele>1761</ele>
        <time>2023-01-29T13:13:54.769Z</time>
      </trkpt>
      <trkpt lat="45.57296" lon="6.60188">
        <ele>1756</ele>
        <time>2023-01-29T13:14:00.781Z</time>
      </trkpt>
      <trkpt lat="45.57277" lon="6.60214">
        <ele>1752</ele>
        <time>2023-01-29T13:14:05.811Z</time>
      </trkpt>
      <trkpt lat="45.5726" lon="6.60235">
        <ele>1748</ele>
        <time>2023-01-29T13:14:10.833Z</time>
      </trkpt>
      <trkpt lat="45.57244" lon="6.60254">
        <ele>1745</ele>
        <time>2023-01-29T13:14:15.828Z</time>
      </trkpt>
      <trkpt lat="45.57232" lon="6.60272">
        <ele>1741</ele>
        <time>2023-01-29T13:14:21.807Z</time>
      </trkpt>
      <trkpt lat="45.57224" lon="6.60287">
        <ele>1739</ele>
        <time>2023-01-29T13:14:25.836Z</time>
      </trkpt>
      <trkpt lat="45.57216" lon="6.60303">
        <ele>1738</ele>
        <time>2023-01-29T13:14:29.835Z</time>
      </trkpt>
      <trkpt lat="45.57206" lon="6.60318">
        <ele>1736</ele>
        <time>2023-01-29T13:14:33.825Z</time>
      </trkpt>
      <trkpt lat="45.57196" lon="6.60331">
        <ele>1735</ele>
        <time>2023-01-29T13:14:36.833Z</time>
      </trkpt>
      <trkpt lat="45.57183" lon="6.60345">
        <ele>1734</ele>
        <time>2023-01-29T13:14:41.800Z</time>
      </trkpt>
      <trkpt lat="45.57172" lon="6.60359">
        <ele>1733</ele>
        <time>2023-01-29T13:14:46.837Z</time>
      </trkpt>
      <trkpt lat="45.57163" lon="6.60371">
        <ele>1733</ele>
        <time>2023-01-29T13:14:50.837Z</time>
      </trkpt>
      <trkpt lat="45.57156" lon="6.60381">
        <ele>1732</ele>
        <time>2023-01-29T13:14:57.841Z</time>
      </trkpt>
      <trkpt lat="45.5715" lon="6.60392">
        <ele>1731</ele>
        <time>2023-01-29T13:15:09.819Z</time>
      </trkpt>
      <trkpt lat="45.57149" lon="6.60392">
        <ele>1729</ele>
        <time>2023-01-29T13:15:25.794Z</time>
      </trkpt>
      <trkpt lat="45.57149" lon="6.60392">
        <ele>1729</ele>
        <time>2023-01-29T13:20:54.765Z</time>
      </trkpt>
      <trkpt lat="45.57151" lon="6.60426">
        <ele>1728</ele>
        <time>2023-01-29T13:20:55.786Z</time>
      </trkpt>
      <trkpt lat="45.57154" lon="6.60439">
        <ele>1728</ele>
        <time>2023-01-29T13:20:57.772Z</time>
      </trkpt>
      <trkpt lat="45.57154" lon="6.60456">
        <ele>1728</ele>
        <time>2023-01-29T13:20:59.856Z</time>
      </trkpt>
      <trkpt lat="45.57156" lon="6.60478">
        <ele>1728</ele>
        <time>2023-01-29T13:21:02.810Z</time>
      </trkpt>
      <trkpt lat="45.57162" lon="6.60515">
        <ele>1728</ele>
        <time>2023-01-29T13:21:07.759Z</time>
      </trkpt>
      <trkpt lat="45.57172" lon="6.60545">
        <ele>1727</ele>
        <time>2023-01-29T13:21:11.766Z</time>
      </trkpt>
      <trkpt lat="45.57174" lon="6.60583">
        <ele>1727</ele>
        <time>2023-01-29T13:21:16.815Z</time>
      </trkpt>
      <trkpt lat="45.57183" lon="6.60619">
        <ele>1726</ele>
        <time>2023-01-29T13:21:21.827Z</time>
      </trkpt>
      <trkpt lat="45.57185" lon="6.60652">
        <ele>1724</ele>
        <time>2023-01-29T13:21:26.820Z</time>
      </trkpt>
      <trkpt lat="45.57192" lon="6.6068">
        <ele>1723</ele>
        <time>2023-01-29T13:21:30.820Z</time>
      </trkpt>
      <trkpt lat="45.57206" lon="6.60708">
        <ele>1721</ele>
        <time>2023-01-29T13:21:35.828Z</time>
      </trkpt>
      <trkpt lat="45.57225" lon="6.60733">
        <ele>1720</ele>
        <time>2023-01-29T13:21:39.807Z</time>
      </trkpt>
      <trkpt lat="45.57241" lon="6.60765">
        <ele>1718</ele>
        <time>2023-01-29T13:21:44.821Z</time>
      </trkpt>
      <trkpt lat="45.57246" lon="6.60803">
        <ele>1715</ele>
        <time>2023-01-29T13:21:50.798Z</time>
      </trkpt>
      <trkpt lat="45.57249" lon="6.6083">
        <ele>1713</ele>
        <time>2023-01-29T13:21:56.799Z</time>
      </trkpt>
      <trkpt lat="45.57256" lon="6.60853">
        <ele>1711</ele>
        <time>2023-01-29T13:22:00.814Z</time>
      </trkpt>
      <trkpt lat="45.57252" lon="6.60881">
        <ele>1709</ele>
        <time>2023-01-29T13:22:04.786Z</time>
      </trkpt>
      <trkpt lat="45.57245" lon="6.60908">
        <ele>1707</ele>
        <time>2023-01-29T13:22:08.823Z</time>
      </trkpt>
      <trkpt lat="45.57251" lon="6.60943">
        <ele>1704</ele>
        <time>2023-01-29T13:22:13.747Z</time>
      </trkpt>
      <trkpt lat="45.57242" lon="6.60972">
        <ele>1701</ele>
        <time>2023-01-29T13:22:17.793Z</time>
      </trkpt>
      <trkpt lat="45.57229" lon="6.61008">
        <ele>1698</ele>
        <time>2023-01-29T13:22:22.783Z</time>
      </trkpt>
      <trkpt lat="45.57208" lon="6.6103">
        <ele>1695</ele>
        <time>2023-01-29T13:22:27.772Z</time>
      </trkpt>
      <trkpt lat="45.57192" lon="6.61055">
        <ele>1692</ele>
        <time>2023-01-29T13:22:31.807Z</time>
      </trkpt>
      <trkpt lat="45.57172" lon="6.61086">
        <ele>1689</ele>
        <time>2023-01-29T13:22:36.785Z</time>
      </trkpt>
      <trkpt lat="45.57164" lon="6.61117">
        <ele>1685</ele>
        <time>2023-01-29T13:22:42.788Z</time>
      </trkpt>
      <trkpt lat="45.57161" lon="6.6113">
        <ele>1680</ele>
        <time>2023-01-29T13:22:50.824Z</time>
      </trkpt>
      <trkpt lat="45.57156" lon="6.61142">
        <ele>1678</ele>
        <time>2023-01-29T13:22:55.805Z</time>
      </trkpt>
      <trkpt lat="45.5715" lon="6.61153">
        <ele>1677</ele>
        <time>2023-01-29T13:23:00.793Z</time>
      </trkpt>
      <trkpt lat="45.57146" lon="6.61166">
        <ele>1676</ele>
        <time>2023-01-29T13:23:04.784Z</time>
      </trkpt>
      <trkpt lat="45.57149" lon="6.61182">
        <ele>1674</ele>
        <time>2023-01-29T13:23:08.810Z</time>
      </trkpt>
      <trkpt lat="45.57154" lon="6.61197">
        <ele>1673</ele>
        <time>2023-01-29T13:23:11.797Z</time>
      </trkpt>
      <trkpt lat="45.57159" lon="6.61215">
        <ele>1672</ele>
        <time>2023-01-29T13:23:14.759Z</time>
      </trkpt>
      <trkpt lat="45.57157" lon="6.61239">
        <ele>1670</ele>
        <time>2023-01-29T13:23:18.777Z</time>
      </trkpt>
      <trkpt lat="45.57148" lon="6.61258">
        <ele>1668</ele>
        <time>2023-01-29T13:23:23.787Z</time>
      </trkpt>
      <trkpt lat="45.57138" lon="6.61283">
        <ele>1666</ele>
        <time>2023-01-29T13:23:27.814Z</time>
      </trkpt>
      <trkpt lat="45.57129" lon="6.61309">
        <ele>1665</ele>
        <time>2023-01-29T13:23:31.819Z</time>
      </trkpt>
      <trkpt lat="45.57118" lon="6.61333">
        <ele>1663</ele>
        <time>2023-01-29T13:23:36.800Z</time>
      </trkpt>
      <trkpt lat="45.57102" lon="6.61346">
        <ele>1661</ele>
        <time>2023-01-29T13:23:42.802Z</time>
      </trkpt>
      <trkpt lat="45.57091" lon="6.61358">
        <ele>1660</ele>
        <time>2023-01-29T13:23:47.763Z</time>
      </trkpt>
      <trkpt lat="45.57081" lon="6.61369">
        <ele>1659</ele>
        <time>2023-01-29T13:23:51.802Z</time>
      </trkpt>
      <trkpt lat="45.57071" lon="6.61376">
        <ele>1659</ele>
        <time>2023-01-29T13:23:54.793Z</time>
      </trkpt>
      <trkpt lat="45.57056" lon="6.61385">
        <ele>1658</ele>
        <time>2023-01-29T13:23:58.806Z</time>
      </trkpt>
      <trkpt lat="45.5704" lon="6.61393">
        <ele>1658</ele>
        <time>2023-01-29T13:24:02.795Z</time>
      </trkpt>
      <trkpt lat="45.57022" lon="6.61404">
        <ele>1657</ele>
        <time>2023-01-29T13:24:07.794Z</time>
      </trkpt>
      <trkpt lat="45.57006" lon="6.61419">
        <ele>1657</ele>
        <time>2023-01-29T13:24:11.825Z</time>
      </trkpt>
      <trkpt lat="45.56991" lon="6.61435">
        <ele>1656</ele>
        <time>2023-01-29T13:24:15.797Z</time>
      </trkpt>
      <trkpt lat="45.56973" lon="6.61461">
        <ele>1655</ele>
        <time>2023-01-29T13:24:19.815Z</time>
      </trkpt>
      <trkpt lat="45.56953" lon="6.61482">
        <ele>1654</ele>
        <time>2023-01-29T13:24:24.779Z</time>
      </trkpt>
      <trkpt lat="45.56936" lon="6.61503">
        <ele>1653</ele>
        <time>2023-01-29T13:24:29.779Z</time>
      </trkpt>
      <trkpt lat="45.56916" lon="6.61521">
        <ele>1651</ele>
        <time>2023-01-29T13:24:34.796Z</time>
      </trkpt>
      <trkpt lat="45.56895" lon="6.61531">
        <ele>1650</ele>
        <time>2023-01-29T13:24:38.799Z</time>
      </trkpt>
      <trkpt lat="45.56872" lon="6.61544">
        <ele>1648</ele>
        <time>2023-01-29T13:24:43.750Z</time>
      </trkpt>
      <trkpt lat="45.56853" lon="6.61558">
        <ele>1647</ele>
        <time>2023-01-29T13:24:48.797Z</time>
      </trkpt>
      <trkpt lat="45.56836" lon="6.61579">
        <ele>1645</ele>
        <time>2023-01-29T13:24:53.827Z</time>
      </trkpt>
      <trkpt lat="45.5682" lon="6.61592">
        <ele>1644</ele>
        <time>2023-01-29T13:24:58.804Z</time>
      </trkpt>
      <trkpt lat="45.56811" lon="6.61615">
        <ele>1642</ele>
        <time>2023-01-29T13:25:03.772Z</time>
      </trkpt>
      <trkpt lat="45.56807" lon="6.6164">
        <ele>1641</ele>
        <time>2023-01-29T13:25:06.776Z</time>
      </trkpt>
      <trkpt lat="45.56803" lon="6.61668">
        <ele>1639</ele>
        <time>2023-01-29T13:25:09.763Z</time>
      </trkpt>
      <trkpt lat="45.56796" lon="6.61704">
        <ele>1636</ele>
        <time>2023-01-29T13:25:13.754Z</time>
      </trkpt>
      <trkpt lat="45.56777" lon="6.61726">
        <ele>1630</ele>
        <time>2023-01-29T13:25:21.771Z</time>
      </trkpt>
      <trkpt lat="45.56772" lon="6.61699">
        <ele>1626</ele>
        <time>2023-01-29T13:25:25.810Z</time>
      </trkpt>
      <trkpt lat="45.56765" lon="6.61672">
        <ele>1622</ele>
        <time>2023-01-29T13:25:29.804Z</time>
      </trkpt>
      <trkpt lat="45.56764" lon="6.61639">
        <ele>1618</ele>
        <time>2023-01-29T13:25:33.784Z</time>
      </trkpt>
      <trkpt lat="45.56768" lon="6.61602">
        <ele>1613</ele>
        <time>2023-01-29T13:25:38.787Z</time>
      </trkpt>
      <trkpt lat="45.5675" lon="6.61623">
        <ele>1607</ele>
        <time>2023-01-29T13:25:45.815Z</time>
      </trkpt>
      <trkpt lat="45.56736" lon="6.61647">
        <ele>1603</ele>
        <time>2023-01-29T13:25:49.789Z</time>
      </trkpt>
      <trkpt lat="45.56726" lon="6.61676">
        <ele>1600</ele>
        <time>2023-01-29T13:25:53.802Z</time>
      </trkpt>
      <trkpt lat="45.56729" lon="6.61714">
        <ele>1598</ele>
        <time>2023-01-29T13:25:57.754Z</time>
      </trkpt>
      <trkpt lat="45.56733" lon="6.61753">
        <ele>1595</ele>
        <time>2023-01-29T13:26:01.789Z</time>
      </trkpt>
      <trkpt lat="45.56746" lon="6.61796">
        <ele>1592</ele>
        <time>2023-01-29T13:26:06.803Z</time>
      </trkpt>
      <trkpt lat="45.56763" lon="6.61831">
        <ele>1589</ele>
        <time>2023-01-29T13:26:11.831Z</time>
      </trkpt>
      <trkpt lat="45.5678" lon="6.61859">
        <ele>1586</ele>
        <time>2023-01-29T13:26:16.761Z</time>
      </trkpt>
      <trkpt lat="45.56793" lon="6.61887">
        <ele>1584</ele>
        <time>2023-01-29T13:26:20.813Z</time>
      </trkpt>
      <trkpt lat="45.56807" lon="6.61923">
        <ele>1581</ele>
        <time>2023-01-29T13:26:25.793Z</time>
      </trkpt>
      <trkpt lat="45.56813" lon="6.61959">
        <ele>1578</ele>
        <time>2023-01-29T13:26:30.779Z</time>
      </trkpt>
      <trkpt lat="45.56818" lon="6.61992">
        <ele>1574</ele>
        <time>2023-01-29T13:26:36.780Z</time>
      </trkpt>
      <trkpt lat="45.56815" lon="6.61995">
        <ele>1566</ele>
        <time>2023-01-29T13:26:54.809Z</time>
      </trkpt>
      <trkpt lat="45.56815" lon="6.61995">
        <ele>1566</ele>
        <time>2023-01-29T13:28:58.831Z</time>
      </trkpt>
      <trkpt lat="45.56818" lon="6.62027">
        <ele>1557</ele>
        <time>2023-01-29T13:28:59.816Z</time>
      </trkpt>
      <trkpt lat="45.56821" lon="6.62039">
        <ele>1557</ele>
        <time>2023-01-29T13:29:01.806Z</time>
      </trkpt>
      <trkpt lat="45.56825" lon="6.62054">
        <ele>1556</ele>
        <time>2023-01-29T13:29:03.837Z</time>
      </trkpt>
      <trkpt lat="45.56833" lon="6.62084">
        <ele>1554</ele>
        <time>2023-01-29T13:29:07.843Z</time>
      </trkpt>
      <trkpt lat="45.56837" lon="6.62125">
        <ele>1552</ele>
        <time>2023-01-29T13:29:11.841Z</time>
      </trkpt>
      <trkpt lat="45.56835" lon="6.62171">
        <ele>1549</ele>
        <time>2023-01-29T13:29:16.836Z</time>
      </trkpt>
      <trkpt lat="45.56828" lon="6.62216">
        <ele>1546</ele>
        <time>2023-01-29T13:29:21.810Z</time>
      </trkpt>
      <trkpt lat="45.56817" lon="6.62261">
        <ele>1543</ele>
        <time>2023-01-29T13:29:26.811Z</time>
      </trkpt>
      <trkpt lat="45.56829" lon="6.62301">
        <ele>1540</ele>
        <time>2023-01-29T13:29:30.843Z</time>
      </trkpt>
      <trkpt lat="45.56834" lon="6.62353">
        <ele>1535</ele>
        <time>2023-01-29T13:29:35.848Z</time>
      </trkpt>
      <trkpt lat="45.56832" lon="6.62409">
        <ele>1531</ele>
        <time>2023-01-29T13:29:40.843Z</time>
      </trkpt>
      <trkpt lat="45.56829" lon="6.62459">
        <ele>1527</ele>
        <time>2023-01-29T13:29:45.807Z</time>
      </trkpt>
      <trkpt lat="45.56824" lon="6.62511">
        <ele>1523</ele>
        <time>2023-01-29T13:29:50.830Z</time>
      </trkpt>
      <trkpt lat="45.56826" lon="6.6256">
        <ele>1519</ele>
        <time>2023-01-29T13:29:55.842Z</time>
      </trkpt>
      <trkpt lat="45.56822" lon="6.62606">
        <ele>1516</ele>
        <time>2023-01-29T13:30:01.860Z</time>
      </trkpt>
      <trkpt lat="45.56826" lon="6.62644">
        <ele>1512</ele>
        <time>2023-01-29T13:30:06.829Z</time>
      </trkpt>
      <trkpt lat="45.56836" lon="6.62678">
        <ele>1509</ele>
        <time>2023-01-29T13:30:11.852Z</time>
      </trkpt>
      <trkpt lat="45.56839" lon="6.62713">
        <ele>1506</ele>
        <time>2023-01-29T13:30:16.780Z</time>
      </trkpt>
      <trkpt lat="45.56825" lon="6.62695">
        <ele>1502</ele>
        <time>2023-01-29T13:30:22.755Z</time>
      </trkpt>
      <trkpt lat="45.56814" lon="6.62678">
        <ele>1500</ele>
        <time>2023-01-29T13:30:27.827Z</time>
      </trkpt>
      <trkpt lat="45.56806" lon="6.62664">
        <ele>1498</ele>
        <time>2023-01-29T13:30:32.823Z</time>
      </trkpt>
      <trkpt lat="45.568" lon="6.6266">
        <ele>1491</ele>
        <time>2023-01-29T13:30:47.831Z</time>
      </trkpt>
      <trkpt lat="45.568" lon="6.6266">
        <ele>1491</ele>
        <time>2023-01-29T13:32:10.830Z</time>
      </trkpt>
      <trkpt lat="45.5681" lon="6.62692">
        <ele>1480</ele>
        <time>2023-01-29T13:32:11.812Z</time>
      </trkpt>
      <trkpt lat="45.56814" lon="6.62706">
        <ele>1479</ele>
        <time>2023-01-29T13:32:15.826Z</time>
      </trkpt>
      <trkpt lat="45.56818" lon="6.6272">
        <ele>1477</ele>
        <time>2023-01-29T13:32:19.864Z</time>
      </trkpt>
      <trkpt lat="45.5682" lon="6.62733">
        <ele>1475</ele>
        <time>2023-01-29T13:32:22.864Z</time>
      </trkpt>
      <trkpt lat="45.56819" lon="6.62752">
        <ele>1472</ele>
        <time>2023-01-29T13:32:26.865Z</time>
      </trkpt>
      <trkpt lat="45.56815" lon="6.62769">
        <ele>1469</ele>
        <time>2023-01-29T13:32:29.875Z</time>
      </trkpt>
      <trkpt lat="45.56814" lon="6.62792">
        <ele>1466</ele>
        <time>2023-01-29T13:32:32.884Z</time>
      </trkpt>
      <trkpt lat="45.56818" lon="6.62822">
        <ele>1463</ele>
        <time>2023-01-29T13:32:35.846Z</time>
      </trkpt>
      <trkpt lat="45.56821" lon="6.62862">
        <ele>1459</ele>
        <time>2023-01-29T13:32:39.831Z</time>
      </trkpt>
      <trkpt lat="45.56828" lon="6.62915">
        <ele>1453</ele>
        <time>2023-01-29T13:32:44.842Z</time>
      </trkpt>
      <trkpt lat="45.56835" lon="6.62964">
        <ele>1448</ele>
        <time>2023-01-29T13:32:49.875Z</time>
      </trkpt>
      <trkpt lat="45.56835" lon="6.63009">
        <ele>1442</ele>
        <time>2023-01-29T13:32:54.871Z</time>
      </trkpt>
      <trkpt lat="45.56836" lon="6.63048">
        <ele>1438</ele>
        <time>2023-01-29T13:32:58.901Z</time>
      </trkpt>
      <trkpt lat="45.56829" lon="6.6309">
        <ele>1433</ele>
        <time>2023-01-29T13:33:03.866Z</time>
      </trkpt>
      <trkpt lat="45.56826" lon="6.63128">
        <ele>1430</ele>
        <time>2023-01-29T13:33:08.816Z</time>
      </trkpt>
      <trkpt lat="45.56826" lon="6.63172">
        <ele>1427</ele>
        <time>2023-01-29T13:33:13.868Z</time>
      </trkpt>
      <trkpt lat="45.56824" lon="6.63215">
        <ele>1425</ele>
        <time>2023-01-29T13:33:18.842Z</time>
      </trkpt>
      <trkpt lat="45.5682" lon="6.63261">
        <ele>1423</ele>
        <time>2023-01-29T13:33:23.848Z</time>
      </trkpt>
      <trkpt lat="45.56822" lon="6.63301">
        <ele>1422</ele>
        <time>2023-01-29T13:33:28.799Z</time>
      </trkpt>
      <trkpt lat="45.56822" lon="6.63341">
        <ele>1420</ele>
        <time>2023-01-29T13:33:33.869Z</time>
      </trkpt>
      <trkpt lat="45.56814" lon="6.63375">
        <ele>1418</ele>
        <time>2023-01-29T13:33:38.878Z</time>
      </trkpt>
      <trkpt lat="45.56818" lon="6.63411">
        <ele>1417</ele>
        <time>2023-01-29T13:33:42.841Z</time>
      </trkpt>
      <trkpt lat="45.56817" lon="6.63445">
        <ele>1416</ele>
        <time>2023-01-29T13:33:46.835Z</time>
      </trkpt>
      <trkpt lat="45.56816" lon="6.63477">
        <ele>1414</ele>
        <time>2023-01-29T13:33:52.844Z</time>
      </trkpt>
      <trkpt lat="45.56815" lon="6.63494">
        <ele>1412</ele>
        <time>2023-01-29T13:33:59.844Z</time>
      </trkpt>
      <trkpt lat="45.56815" lon="6.6351">
        <ele>1411</ele>
        <time>2023-01-29T13:34:04.868Z</time>
      </trkpt>
      <trkpt lat="45.56816" lon="6.63523">
        <ele>1410</ele>
        <time>2023-01-29T13:34:07.889Z</time>
      </trkpt>
      <trkpt lat="45.56818" lon="6.63536">
        <ele>1409</ele>
        <time>2023-01-29T13:34:09.850Z</time>
      </trkpt>
      <trkpt lat="45.5682" lon="6.6355">
        <ele>1409</ele>
        <time>2023-01-29T13:34:11.846Z</time>
      </trkpt>
      <trkpt lat="45.56823" lon="6.63574">
        <ele>1408</ele>
        <time>2023-01-29T13:34:15.860Z</time>
      </trkpt>
      <trkpt lat="45.56829" lon="6.63599">
        <ele>1407</ele>
        <time>2023-01-29T13:34:19.868Z</time>
      </trkpt>
      <trkpt lat="45.5684" lon="6.63627">
        <ele>1406</ele>
        <time>2023-01-29T13:34:24.843Z</time>
      </trkpt>
      <trkpt lat="45.56852" lon="6.63649">
        <ele>1405</ele>
        <time>2023-01-29T13:34:28.847Z</time>
      </trkpt>
      <trkpt lat="45.56862" lon="6.63675">
        <ele>1405</ele>
        <time>2023-01-29T13:34:32.878Z</time>
      </trkpt>
      <trkpt lat="45.56872" lon="6.63706">
        <ele>1404</ele>
        <time>2023-01-29T13:34:37.886Z</time>
      </trkpt>
      <trkpt lat="45.56881" lon="6.63735">
        <ele>1403</ele>
        <time>2023-01-29T13:34:42.854Z</time>
      </trkpt>
      <trkpt lat="45.56878" lon="6.63764">
        <ele>1402</ele>
        <time>2023-01-29T13:34:47.792Z</time>
      </trkpt>
      <trkpt lat="45.56872" lon="6.63788">
        <ele>1402</ele>
        <time>2023-01-29T13:34:51.855Z</time>
      </trkpt>
      <trkpt lat="45.56874" lon="6.63814">
        <ele>1401</ele>
        <time>2023-01-29T13:34:57.852Z</time>
      </trkpt>
      <trkpt lat="45.56879" lon="6.63831">
        <ele>1400</ele>
        <time>2023-01-29T13:35:01.860Z</time>
      </trkpt>
      <trkpt lat="45.56888" lon="6.63849">
        <ele>1400</ele>
        <time>2023-01-29T13:35:04.859Z</time>
      </trkpt>
      <trkpt lat="45.56901" lon="6.63868">
        <ele>1399</ele>
        <time>2023-01-29T13:35:07.836Z</time>
      </trkpt>
      <trkpt lat="45.56914" lon="6.63892">
        <ele>1397</ele>
        <time>2023-01-29T13:35:11.851Z</time>
      </trkpt>
      <trkpt lat="45.56928" lon="6.63917">
        <ele>1395</ele>
        <time>2023-01-29T13:35:16.862Z</time>
      </trkpt>
      <trkpt lat="45.56944" lon="6.63937">
        <ele>1394</ele>
        <time>2023-01-29T13:35:20.836Z</time>
      </trkpt>
      <trkpt lat="45.56958" lon="6.63959">
        <ele>1392</ele>
        <time>2023-01-29T13:35:24.811Z</time>
      </trkpt>
      <trkpt lat="45.56974" lon="6.63984">
        <ele>1390</ele>
        <time>2023-01-29T13:35:29.798Z</time>
      </trkpt>
      <trkpt lat="45.56989" lon="6.64006">
        <ele>1388</ele>
        <time>2023-01-29T13:35:34.850Z</time>
      </trkpt>
      <trkpt lat="45.57004" lon="6.64024">
        <ele>1386</ele>
        <time>2023-01-29T13:35:39.855Z</time>
      </trkpt>
      <trkpt lat="45.5702" lon="6.64034">
        <ele>1385</ele>
        <time>2023-01-29T13:35:43.846Z</time>
      </trkpt>
      <trkpt lat="45.57034" lon="6.64054">
        <ele>1384</ele>
        <time>2023-01-29T13:35:47.860Z</time>
      </trkpt>
      <trkpt lat="45.57044" lon="6.64081">
        <ele>1383</ele>
        <time>2023-01-29T13:35:51.809Z</time>
      </trkpt>
      <trkpt lat="45.57055" lon="6.64109">
        <ele>1382</ele>
        <time>2023-01-29T13:35:55.871Z</time>
      </trkpt>
      <trkpt lat="45.57071" lon="6.6414">
        <ele>1381</ele>
        <time>2023-01-29T13:36:00.850Z</time>
      </trkpt>
      <trkpt lat="45.57082" lon="6.64171">
        <ele>1380</ele>
        <time>2023-01-29T13:36:05.833Z</time>
      </trkpt>
      <trkpt lat="45.57083" lon="6.64204">
        <ele>1379</ele>
        <time>2023-01-29T13:36:10.849Z</time>
      </trkpt>
      <trkpt lat="45.57084" lon="6.64234">
        <ele>1378</ele>
        <time>2023-01-29T13:36:14.811Z</time>
      </trkpt>
      <trkpt lat="45.57088" lon="6.64267">
        <ele>1376</ele>
        <time>2023-01-29T13:36:18.859Z</time>
      </trkpt>
      <trkpt lat="45.57093" lon="6.643">
        <ele>1375</ele>
        <time>2023-01-29T13:36:23.863Z</time>
      </trkpt>
      <trkpt lat="45.57096" lon="6.64328">
        <ele>1373</ele>
        <time>2023-01-29T13:36:28.826Z</time>
      </trkpt>
      <trkpt lat="45.57102" lon="6.64351">
        <ele>1371</ele>
        <time>2023-01-29T13:36:33.804Z</time>
      </trkpt>
      <trkpt lat="45.57109" lon="6.6437">
        <ele>1369</ele>
        <time>2023-01-29T13:36:37.851Z</time>
      </trkpt>
      <trkpt lat="45.57113" lon="6.64392">
        <ele>1367</ele>
        <time>2023-01-29T13:36:41.870Z</time>
      </trkpt>
      <trkpt lat="45.57117" lon="6.64413">
        <ele>1366</ele>
        <time>2023-01-29T13:36:45.810Z</time>
      </trkpt>
      <trkpt lat="45.57123" lon="6.64432">
        <ele>1364</ele>
        <time>2023-01-29T13:36:50.827Z</time>
      </trkpt>
      <trkpt lat="45.57127" lon="6.64442">
        <ele>1360</ele>
        <time>2023-01-29T13:37:09.822Z</time>
      </trkpt>
      <trkpt lat="45.57127" lon="6.64442">
        <ele>1360</ele>
        <time>2023-01-29T13:43:35.540Z</time>
      </trkpt>
    </trkseg>
  </trk>
</gpx>